Home > Products > Valid Products > TAF

000
FTUS44 KOUN 050416 AAA
TAFSPS
TAF AMD
KSPS 050416Z 0504/0524 02015G25KT 5SM -SN OVC090
      TEMPO 0504/0506 3SM -SN OVC025
     FM050600 01013KT P6SM OVC070
     FM051200 VRB04KT P6SM SCT020 SCT100=



000
FTUS44 KOUN 050416 AAA
TAFSPS
TAF AMD
KSPS 050416Z 0504/0524 02015G25KT 5SM -SN OVC090
      TEMPO 0504/0506 3SM -SN OVC025
     FM050600 01013KT P6SM OVC070
     FM051200 VRB04KT P6SM SCT020 SCT100=



000
FTUS44 KOUN 050414 AAA
TAFLAW
TAF AMD
KLAW 050414Z 0504/0524 02014G25KT P6SM OVC040
      TEMPO 0504/0506 5SM -SN
     FM051200 VRB04KT P6SM SCT100=



000
FTUS44 KOUN 050411 AAB
TAFHBR
TAF AMD
KHBR 050411Z 0504/0524 01015KT P6SM BKN060
     FM051200 35006KT P6SM SKC
     FM052100 22007KT P6SM SKC=



000
FTUS44 KOUN 050411 AAB
TAFHBR
TAF AMD
KHBR 050411Z 0504/0524 01015KT P6SM BKN060
     FM051200 35006KT P6SM SKC
     FM052100 22007KT P6SM SKC=



000
FTUS44 KOUN 050408 AAC
TAFOUN
TAF AMD
KOUN 050408Z 0504/0524 02010KT P6SM SCT020 OVC060
      TEMPO 0504/0508 5SM -SN
     FM051500 03004KT P6SM SCT020=



000
FTUS44 KOUN 050408 AAC
TAFOUN
TAF AMD
KOUN 050408Z 0504/0524 02010KT P6SM SCT020 OVC060
      TEMPO 0504/0508 5SM -SN
     FM051500 03004KT P6SM SCT020=



000
FTUS44 KOUN 050407 AAB
TAFOKC
TAF AMD
KOKC 050407Z 0504/0524 04010KT P6SM SCT020 OVC060
      TEMPO 0504/0508 5SM -SN
     FM051500 03004KT P6SM SCT020=



000
FTUS44 KOUN 050407 AAB
TAFOKC
TAF AMD
KOKC 050407Z 0504/0524 04010KT P6SM SCT020 OVC060
      TEMPO 0504/0508 5SM -SN
     FM051500 03004KT P6SM SCT020=



000
FTUS44 KOUN 050203 AAA
TAFHBR
TAF AMD
KHBR 050203Z 0502/0524 03015KT 6SM BR SCT012 OVC060
      TEMPO 0502/0503 2SM -SN BR OVC012
     FM050300 04015KT P6SM BKN060
     FM050900 01005KT P6SM BKN060
     FM051200 35006KT P6SM SKC=



000
FTUS44 KOUN 050203 AAA
TAFHBR
TAF AMD
KHBR 050203Z 0502/0524 03015KT 6SM BR SCT012 OVC060
      TEMPO 0502/0503 2SM -SN BR OVC012
     FM050300 04015KT P6SM BKN060
     FM050900 01005KT P6SM BKN060
     FM051200 35006KT P6SM SKC=



000
FTUS44 KOUN 050201 AAA
TAFOKC
TAF AMD
KOKC 050201Z 0502/0524 01020KT 2SM -SN BR SCT010 OVC020
      TEMPO 0502/0503 1/4SM +SN FG OVC010
     FM050500 02010KT P6SM SCT020 OVC060
     FM051500 03004KT P6SM SCT020=



000
FTUS44 KOUN 050201 AAA
TAFOKC
TAF AMD
KOKC 050201Z 0502/0524 01020KT 2SM -SN BR SCT010 OVC020
      TEMPO 0502/0503 1/4SM +SN FG OVC010
     FM050500 02010KT P6SM SCT020 OVC060
     FM051500 03004KT P6SM SCT020=



000
FTUS44 KOUN 050201 AAA
TAFOKC
TAF AMD
KOKC 050201Z 0502/0524 01020KT 2SM -SN BR SCT010 OVC020
      TEMPO 0502/0503 1/4SM +SN FG OVC010
     FM050500 02010KT P6SM SCT020 OVC060
     FM051500 03004KT P6SM SCT020=



000
FTUS44 KOUN 050201 AAA
TAFOKC
TAF AMD
KOKC 050201Z 0502/0524 01020KT 2SM -SN BR SCT010 OVC020
      TEMPO 0502/0503 1/4SM +SN FG OVC010
     FM050500 02010KT P6SM SCT020 OVC060
     FM051500 03004KT P6SM SCT020=



000
FTUS44 KOUN 042340
TAFOKC
TAF
KOKC 042340Z 0500/0524 01020KT 2SM -SN BR SCT010 OVC020
      TEMPO 0500/0503 1SM -SN OVC010
     FM050500 02010KT P6SM SCT020 OVC060
     FM051500 03004KT P6SM SCT020=



000
FTUS44 KOUN 042340
TAFHBR
TAF
KHBR 042340Z 0500/0524 03025G30KT 2SM BR OVC012
      TEMPO 0500/0503 1/2SM SN OVC008
     FM050300 04015KT P6SM BKN025
     FM050900 01005KT P6SM BKN060
     FM051200 35006KT P6SM SKC=



000
FTUS44 KOUN 042340
TAFOUN
TAF
KOUN 042340Z 0500/0524 01020KT 2SM -SN BR OVC012
      TEMPO 0500/0503 1SM -SN OVC008
     FM050600 02010KT P6SM SCT020 OVC060
     FM051500 03004KT P6SM SCT020=



000
FTUS44 KOUN 042340
TAFLAW
TAF
KLAW 042340Z 0500/0524 02018G28KT 2SM -SN OVC015
      TEMPO 0500/0503 1SM -SN OVC009
     FM050400 01005KT P6SM OVC025
     FM051200 VRB04KT P6SM SCT100=



000
FTUS44 KOUN 042340
TAFPNC
TAF
KPNC 042340Z 0500/0524 03011KT P6SM OVC080
     FM050900 VRB04KT P6SM SKC
     FM052000 19005KT P6SM SKC=



000
FTUS44 KOUN 042340
TAFWWR
TAF
KWWR 042340Z 0500/0524 02013G20KT P6SM OVC050
     FM050300 36004KT P6SM OVC100
     FM051200 VRB04KT P6SM SKC
     FM052000 21010KT P6SM SKC=



000
FTUS44 KOUN 042340
TAFGAG
TAF
KGAG 042340Z 0500/0524 02013G20KT P6SM OVC050
     FM050300 36004KT P6SM OVC100
     FM051200 VRB04KT P6SM SKC
     FM052000 21010KT P6SM SKC=



000
FTUS44 KOUN 042340
TAFSPS
TAF
KSPS 042340Z 0500/0524 02018G28KT 2SM -SN OVC010
      TEMPO 0500/0503 1SM -SN OVC009
     FM050500 01013KT P6SM OVC025
     FM051200 VRB04KT P6SM SCT020 SCT100=



000
FTUS44 KOUN 042340
TAFHBR
TAF
KHBR 042340Z 0500/0524 03025G30KT 2SM BR OVC012
      TEMPO 0500/0503 1/2SM SN OVC008
     FM050300 04015KT P6SM BKN025
     FM050900 01005KT P6SM BKN060
     FM051200 35006KT P6SM SKC=



000
FTUS44 KOUN 042340
TAFSPS
TAF
KSPS 042340Z 0500/0524 02018G28KT 2SM -SN OVC010
      TEMPO 0500/0503 1SM -SN OVC009
     FM050500 01013KT P6SM OVC025
     FM051200 VRB04KT P6SM SCT020 SCT100=



000
FTUS44 KOUN 042340
TAFLAW
TAF
KLAW 042340Z 0500/0524 02018G28KT 2SM -SN OVC015
      TEMPO 0500/0503 1SM -SN OVC009
     FM050400 01005KT P6SM OVC025
     FM051200 VRB04KT P6SM SCT100=



000
FTUS44 KOUN 042243 AAD
TAFLAW
TAF AMD
KLAW 042243Z 0423/0518 01015G35KT 1/2SM SN OVC010
     FM050000 02018G28KT 3SM -SN OVC010
     FM050900 01005KT P6SM OVC015
     FM051200 VRB05KT P6SM BKN100=



000
FTUS44 KOUN 042243 AAD
TAFLAW
TAF AMD
KLAW 042243Z 0423/0518 01015G35KT 1/2SM SN OVC010
     FM050000 02018G28KT 3SM -SN OVC010
     FM050900 01005KT P6SM OVC015
     FM051200 VRB05KT P6SM BKN100=



000
FTUS44 KOUN 042236 AAE
TAFOUN
TAF AMD
KOUN 042236Z 0423/0518 02020G30KT 2SM -SN OVC020
      TEMPO 0423/0501 1/2SM SN OVC008
     FM050100 01020KT 1SM -SN BR OVC010
     FM050600 02010KT 5SM BR OVC020
     FM051500 03004KT P6SM SCT020=



000
FTUS44 KOUN 042236 AAE
TAFOUN
TAF AMD
KOUN 042236Z 0423/0518 02020G30KT 2SM -SN OVC020
      TEMPO 0423/0501 1/2SM SN OVC008
     FM050100 01020KT 1SM -SN BR OVC010
     FM050600 02010KT 5SM BR OVC020
     FM051500 03004KT P6SM SCT020=



000
FTUS44 KOUN 042236 AAE
TAFOUN
TAF AMD
KOUN 042236Z 0423/0518 02020G30KT 2SM -SN OVC020
      TEMPO 0423/0501 1/2SM SN OVC008
     FM050100 01020KT 1SM -SN BR OVC010
     FM050600 02010KT 5SM BR OVC020
     FM051500 03004KT P6SM SCT020=



000
FTUS44 KOUN 042236 AAE
TAFOUN
TAF AMD
KOUN 042236Z 0423/0518 02020G30KT 2SM -SN OVC020
      TEMPO 0423/0501 1/2SM SN OVC008
     FM050100 01020KT 1SM -SN BR OVC010
     FM050600 02010KT 5SM BR OVC020
     FM051500 03004KT P6SM SCT020=



000
FTUS44 KOUN 042206 AAD
TAFOKC
TAF AMD
KOKC 042206Z 0422/0518 01020G30KT 5SM -SN OVC015
      TEMPO 0422/0423 1/2SM SNPL OVC008
     FM050000 01020KT 1SM -SN BR OVC010
     FM050600 02010KT 5SM BR OVC020
     FM051500 03004KT P6SM SCT020=



000
FTUS44 KOUN 042206 AAD
TAFOKC
TAF AMD
KOKC 042206Z 0422/0518 01020G30KT 5SM -SN OVC015
      TEMPO 0422/0423 1/2SM SNPL OVC008
     FM050000 01020KT 1SM -SN BR OVC010
     FM050600 02010KT 5SM BR OVC020
     FM051500 03004KT P6SM SCT020=



000
FTUS44 KOUN 042206 AAD
TAFOKC
TAF AMD
KOKC 042206Z 0422/0518 01020G30KT 5SM -SN OVC015
      TEMPO 0422/0423 1/2SM SNPL OVC008
     FM050000 01020KT 1SM -SN BR OVC010
     FM050600 02010KT 5SM BR OVC020
     FM051500 03004KT P6SM SCT020=



000
FTUS44 KOUN 042206 AAD
TAFOKC
TAF AMD
KOKC 042206Z 0422/0518 01020G30KT 5SM -SN OVC015
      TEMPO 0422/0423 1/2SM SNPL OVC008
     FM050000 01020KT 1SM -SN BR OVC010
     FM050600 02010KT 5SM BR OVC020
     FM051500 03004KT P6SM SCT020=



000
FTUS44 KOUN 042151 AAE
TAFOUN
TAF AMD
KOUN 042151Z 0422/0518 02020G30KT 5SM -PL OVC020
      TEMPO 0422/0501 1/4SM +SNPL OVC008
     FM050100 01020KT 1SM -SN BR OVC010
     FM050600 02010KT 5SM BR OVC020
     FM051500 03004KT P6SM SCT020=



000
FTUS44 KOUN 042151 AAE
TAFOUN
TAF AMD
KOUN 042151Z 0422/0518 02020G30KT 5SM -PL OVC020
      TEMPO 0422/0501 1/4SM +SNPL OVC008
     FM050100 01020KT 1SM -SN BR OVC010
     FM050600 02010KT 5SM BR OVC020
     FM051500 03004KT P6SM SCT020=



000
FTUS44 KOUN 042151 AAE
TAFOUN
TAF AMD
KOUN 042151Z 0422/0518 02020G30KT 5SM -PL OVC020
      TEMPO 0422/0501 1/4SM +SNPL OVC008
     FM050100 01020KT 1SM -SN BR OVC010
     FM050600 02010KT 5SM BR OVC020
     FM051500 03004KT P6SM SCT020=



000
FTUS44 KOUN 042147 AAD
TAFGAG
TAF AMD
KGAG 042147Z 0422/0518 02020G25KT P6SM OVC050
      TEMPO 0422/0501 3SM -SN BR OVC010
     FM050200 01009KT P6SM SCT015 OVC050
     FM050800 VRB05KT P6SM SCT050 BKN150=



000
FTUS44 KOUN 042147 AAD
TAFGAG
TAF AMD
KGAG 042147Z 0422/0518 02020G25KT P6SM OVC050
      TEMPO 0422/0501 3SM -SN BR OVC010
     FM050200 01009KT P6SM SCT015 OVC050
     FM050800 VRB05KT P6SM SCT050 BKN150=



000
FTUS44 KOUN 042147 AAD
TAFGAG
TAF AMD
KGAG 042147Z 0422/0518 02020G25KT P6SM OVC050
      TEMPO 0422/0501 3SM -SN BR OVC010
     FM050200 01009KT P6SM SCT015 OVC050
     FM050800 VRB05KT P6SM SCT050 BKN150=



000
FTUS44 KOUN 042146 AAC
TAFWWR
TAF AMD
KWWR 042146Z 0422/0518 02015G25KT P6SM BKN050 OVC060
      TEMPO 0422/0501 3SM -SN BR OVC010
     FM050200 01009KT P6SM SCT015 OVC050
     FM050800 VRB05KT P6SM SCT050 BKN150=



000
FTUS44 KOUN 042146 AAC
TAFWWR
TAF AMD
KWWR 042146Z 0422/0518 02015G25KT P6SM BKN050 OVC060
      TEMPO 0422/0501 3SM -SN BR OVC010
     FM050200 01009KT P6SM SCT015 OVC050
     FM050800 VRB05KT P6SM SCT050 BKN150=



000
FTUS44 KOUN 042146 AAC
TAFWWR
TAF AMD
KWWR 042146Z 0422/0518 02015G25KT P6SM BKN050 OVC060
      TEMPO 0422/0501 3SM -SN BR OVC010
     FM050200 01009KT P6SM SCT015 OVC050
     FM050800 VRB05KT P6SM SCT050 BKN150=



000
FTUS44 KOUN 042145 AAC
TAFGAG
TAF AMD
KGAG 042145Z 0422/0518 02020G25KT P6SM OVC050
      TEMPO 0422/0423 3SM -SN BR OVC010
     FM050100 01009KT P6SM SCT015 OVC050
     FM050800 VRB05KT P6SM SCT050 BKN150=



000
FTUS44 KOUN 042115 AAC
TAFLAW
TAF AMD
KLAW 042115Z 0421/0518 02020G35KT 5SM -SN OVC030
     FM050000 02018G28KT 3SM -SN OVC010
     FM050900 01005KT P6SM OVC015
     FM051200 VRB05KT P6SM BKN100=



000
FTUS44 KOUN 042108 AAB
TAFHBR
TAF AMD
KHBR 042108Z 0421/0518 03025G30KT 2SM BR OVC020
      TEMPO 0421/0423 3/4SM -SN OVC010
     FM050300 02018G28KT 3SM BR OVC010
      TEMPO 0503/0507 1SM -SN OVC008
     FM050900 01005KT P6SM OVC015
     FM051200 VRB05KT P6SM BKN100=



000
FTUS44 KOUN 042108 AAB
TAFHBR
TAF AMD
KHBR 042108Z 0421/0518 03025G30KT 2SM BR OVC020
      TEMPO 0421/0423 3/4SM -SN OVC010
     FM050300 02018G28KT 3SM BR OVC010
      TEMPO 0503/0507 1SM -SN OVC008
     FM050900 01005KT P6SM OVC015
     FM051200 VRB05KT P6SM BKN100=



000
FTUS44 KOUN 042102 AAD
TAFPNC
TAF AMD
KPNC 042102Z 0421/0518 02015G20KT 3SM -SN OVC030
     FM050000 01015G25KT 5SM BR OVC020
      TEMPO 0500/0504 3SM -SN OVC010
     FM050900 VRB04KT P6SM SCT030 BKN150=



000
FTUS44 KOUN 042102 AAD
TAFPNC
TAF AMD
KPNC 042102Z 0421/0518 02015G20KT 3SM -SN OVC030
     FM050000 01015G25KT 5SM BR OVC020
      TEMPO 0500/0504 3SM -SN OVC010
     FM050900 VRB04KT P6SM SCT030 BKN150=



000
FTUS44 KOUN 042045 AAB
TAFLAW
TAF AMD
KLAW 042045Z 0421/0518 02020G35KT 5SM BR BKN040
      TEMPO 0421/0423 1/2SM SNPL OVC010
     FM050000 02018G28KT 3SM -SN OVC010
     FM050900 01005KT P6SM OVC015
     FM051200 VRB05KT P6SM BKN100=



000
FTUS44 KOUN 042045 AAC
TAFOUN
TAF AMD
KOUN 042045Z 0421/0518 02025G30KT 5SM -SN OVC030
      TEMPO 0421/0423 1/4SM +SNPL OVC008
     FM050000 01020KT 1SM -SN BR OVC010
     FM050600 02010KT 5SM BR OVC020 PROB30 0506/0510 3SM -SN OVC010
     FM051500 03004KT P6SM SCT020=



000
FTUS44 KOUN 042045 AAC
TAFOUN
TAF AMD
KOUN 042045Z 0421/0518 02025G30KT 5SM -SN OVC030
      TEMPO 0421/0423 1/4SM +SNPL OVC008
     FM050000 01020KT 1SM -SN BR OVC010
     FM050600 02010KT 5SM BR OVC020 PROB30 0506/0510 3SM -SN OVC010
     FM051500 03004KT P6SM SCT020=



000
FTUS44 KOUN 042045 AAC
TAFOUN
TAF AMD
KOUN 042045Z 0421/0518 02025G30KT 5SM -SN OVC030
      TEMPO 0421/0423 1/4SM +SNPL OVC008
     FM050000 01020KT 1SM -SN BR OVC010
     FM050600 02010KT 5SM BR OVC020 PROB30 0506/0510 3SM -SN OVC010
     FM051500 03004KT P6SM SCT020=



000
FTUS44 KOUN 042045 AAB
TAFLAW
TAF AMD
KLAW 042045Z 0421/0518 02020G35KT 5SM BR BKN040
      TEMPO 0421/0423 1/2SM SNPL OVC010
     FM050000 02018G28KT 3SM -SN OVC010
     FM050900 01005KT P6SM OVC015
     FM051200 VRB05KT P6SM BKN100=



000
FTUS44 KOUN 042045 AAB
TAFLAW
TAF AMD
KLAW 042045Z 0421/0518 02020G35KT 5SM BR BKN040
      TEMPO 0421/0423 1/2SM SNPL OVC010
     FM050000 02018G28KT 3SM -SN OVC010
     FM050900 01005KT P6SM OVC015
     FM051200 VRB05KT P6SM BKN100=



000
FTUS44 KOUN 042042 AAB
TAFOUN
TAF AMD
KOUN 042042Z 0421/0518 02025G30KT 5SM -SN OVC030
      TEMPO 0421/0423 1/4SM +SN OVC008
     FM050000 01020KT 1SM -SN BR OVC010
     FM050600 02010KT 5SM BR OVC020 PROB30 0506/0510 3SM -SN OVC010
     FM051500 03004KT P6SM SCT020=



000
FTUS44 KOUN 042042 AAB
TAFOUN
TAF AMD
KOUN 042042Z 0421/0518 02025G30KT 5SM -SN OVC030
      TEMPO 0421/0423 1/4SM +SN OVC008
     FM050000 01020KT 1SM -SN BR OVC010
     FM050600 02010KT 5SM BR OVC020 PROB30 0506/0510 3SM -SN OVC010
     FM051500 03004KT P6SM SCT020=



000
FTUS44 KOUN 042042 AAB
TAFOUN
TAF AMD
KOUN 042042Z 0421/0518 02025G30KT 5SM -SN OVC030
      TEMPO 0421/0423 1/4SM +SN OVC008
     FM050000 01020KT 1SM -SN BR OVC010
     FM050600 02010KT 5SM BR OVC020 PROB30 0506/0510 3SM -SN OVC010
     FM051500 03004KT P6SM SCT020=



000
FTUS44 KOUN 042040 AAA
TAFLAW
TAF AMD
KLAW 042040Z 0421/0518 02020G35KT 5SM BR BKN040
      TEMPO 0421/0423 1/2SM SN OVC010
     FM050000 02018G28KT 3SM -SN OVC010
     FM050900 01005KT P6SM OVC015
     FM051200 VRB05KT P6SM BKN100=



000
FTUS44 KOUN 042040 AAA
TAFLAW
TAF AMD
KLAW 042040Z 0421/0518 02020G35KT 5SM BR BKN040
      TEMPO 0421/0423 1/2SM SN OVC010
     FM050000 02018G28KT 3SM -SN OVC010
     FM050900 01005KT P6SM OVC015
     FM051200 VRB05KT P6SM BKN100=



000
FTUS44 KOUN 042040 AAA
TAFLAW
TAF AMD
KLAW 042040Z 0421/0518 02020G35KT 5SM BR BKN040
      TEMPO 0421/0423 1/2SM SN OVC010
     FM050000 02018G28KT 3SM -SN OVC010
     FM050900 01005KT P6SM OVC015
     FM051200 VRB05KT P6SM BKN100=



000
FTUS44 KOUN 042040 AAA
TAFLAW
TAF AMD
KLAW 042040Z 0421/0518 02020G35KT 5SM BR BKN040
      TEMPO 0421/0423 1/2SM SN OVC010
     FM050000 02018G28KT 3SM -SN OVC010
     FM050900 01005KT P6SM OVC015
     FM051200 VRB05KT P6SM BKN100=



000
FTUS44 KOUN 042035 AAC
TAFOKC
TAF AMD
KOKC 042035Z 0421/0518 01020G30KT 5SM -SN OVC015
      TEMPO 0421/0423 1/2SM SN OVC008
     FM050000 01020KT 1SM -SN BR OVC010
     FM050600 02010KT 5SM BR OVC020 PROB30 0506/0510 3SM -SN OVC010
     FM051500 03004KT P6SM SCT020=



000
FTUS44 KOUN 042032 AAC
TAFOUN
TAF AMD
KOUN 042032Z 0421/0518 02025G30KT 5SM -SN OVC030
      TEMPO 0421/0423 1/2SM SN OVC008
     FM050000 01020KT 1SM -SN BR OVC010
     FM050600 02010KT 5SM BR OVC020 PROB30 0506/0510 3SM -SN OVC010
     FM051500 03004KT P6SM SCT020=



000
FTUS44 KOUN 042032 AAC
TAFOUN
TAF AMD
KOUN 042032Z 0421/0518 02025G30KT 5SM -SN OVC030
      TEMPO 0421/0423 1/2SM SN OVC008
     FM050000 01020KT 1SM -SN BR OVC010
     FM050600 02010KT 5SM BR OVC020 PROB30 0506/0510 3SM -SN OVC010
     FM051500 03004KT P6SM SCT020=



000
FTUS44 KOUN 042032 AAC
TAFOUN
TAF AMD
KOUN 042032Z 0421/0518 02025G30KT 5SM -SN OVC030
      TEMPO 0421/0423 1/2SM SN OVC008
     FM050000 01020KT 1SM -SN BR OVC010
     FM050600 02010KT 5SM BR OVC020 PROB30 0506/0510 3SM -SN OVC010
     FM051500 03004KT P6SM SCT020=



000
FTUS44 KOUN 042032 AAC
TAFOUN
TAF AMD
KOUN 042032Z 0421/0518 02025G30KT 5SM -SN OVC030
      TEMPO 0421/0423 1/2SM SN OVC008
     FM050000 01020KT 1SM -SN BR OVC010
     FM050600 02010KT 5SM BR OVC020 PROB30 0506/0510 3SM -SN OVC010
     FM051500 03004KT P6SM SCT020=



000
FTUS44 KOUN 042023 AAB
TAFWWR
TAF AMD
KWWR 042023Z 0420/0518 02020G25KT P6SM BKN030 OVC050
      TEMPO 0420/0423 3SM -SN BR OVC010
     FM050100 01009KT P6SM SCT015 OVC050
     FM050800 VRB05KT P6SM SCT050 BKN150=



000
FTUS44 KOUN 042023 AAB
TAFWWR
TAF AMD
KWWR 042023Z 0420/0518 02020G25KT P6SM BKN030 OVC050
      TEMPO 0420/0423 3SM -SN BR OVC010
     FM050100 01009KT P6SM SCT015 OVC050
     FM050800 VRB05KT P6SM SCT050 BKN150=



000
FTUS44 KOUN 042023 AAB
TAFWWR
TAF AMD
KWWR 042023Z 0420/0518 02020G25KT P6SM BKN030 OVC050
      TEMPO 0420/0423 3SM -SN BR OVC010
     FM050100 01009KT P6SM SCT015 OVC050
     FM050800 VRB05KT P6SM SCT050 BKN150=



000
FTUS44 KOUN 042023 AAB
TAFWWR
TAF AMD
KWWR 042023Z 0420/0518 02020G25KT P6SM BKN030 OVC050
      TEMPO 0420/0423 3SM -SN BR OVC010
     FM050100 01009KT P6SM SCT015 OVC050
     FM050800 VRB05KT P6SM SCT050 BKN150=



000
FTUS44 KOUN 042022 AAB
TAFGAG
TAF AMD
KGAG 042022Z 0420/0518 02015G25KT P6SM OVC030
      TEMPO 0420/0423 3SM -SN BR OVC010
     FM050100 01009KT P6SM SCT015 OVC050
     FM050800 VRB05KT P6SM SCT050 BKN150=



000
FTUS44 KOUN 042022 AAB
TAFGAG
TAF AMD
KGAG 042022Z 0420/0518 02015G25KT P6SM OVC030
      TEMPO 0420/0423 3SM -SN BR OVC010
     FM050100 01009KT P6SM SCT015 OVC050
     FM050800 VRB05KT P6SM SCT050 BKN150=



000
FTUS44 KOUN 042022 AAB
TAFGAG
TAF AMD
KGAG 042022Z 0420/0518 02015G25KT P6SM OVC030
      TEMPO 0420/0423 3SM -SN BR OVC010
     FM050100 01009KT P6SM SCT015 OVC050
     FM050800 VRB05KT P6SM SCT050 BKN150=



000
FTUS44 KOUN 042022 AAB
TAFGAG
TAF AMD
KGAG 042022Z 0420/0518 02015G25KT P6SM OVC030
      TEMPO 0420/0423 3SM -SN BR OVC010
     FM050100 01009KT P6SM SCT015 OVC050
     FM050800 VRB05KT P6SM SCT050 BKN150=



000
FTUS44 KOUN 042017 AAA
TAFHBR
TAF AMD
KHBR 042017Z 0420/0518 03025G35KT 1SM -SN BKN015 OVC020
     FM050300 02018G28KT 3SM BR OVC010
      TEMPO 0503/0507 1SM -SN OVC008
     FM050900 01005KT P6SM OVC015
     FM051200 VRB05KT P6SM BKN100=



000
FTUS44 KOUN 042017 AAA
TAFHBR
TAF AMD
KHBR 042017Z 0420/0518 03025G35KT 1SM -SN BKN015 OVC020
     FM050300 02018G28KT 3SM BR OVC010
      TEMPO 0503/0507 1SM -SN OVC008
     FM050900 01005KT P6SM OVC015
     FM051200 VRB05KT P6SM BKN100=



000
FTUS44 KOUN 042017 AAA
TAFHBR
TAF AMD
KHBR 042017Z 0420/0518 03025G35KT 1SM -SN BKN015 OVC020
     FM050300 02018G28KT 3SM BR OVC010
      TEMPO 0503/0507 1SM -SN OVC008
     FM050900 01005KT P6SM OVC015
     FM051200 VRB05KT P6SM BKN100=



000
FTUS44 KOUN 042017 AAA
TAFHBR
TAF AMD
KHBR 042017Z 0420/0518 03025G35KT 1SM -SN BKN015 OVC020
     FM050300 02018G28KT 3SM BR OVC010
      TEMPO 0503/0507 1SM -SN OVC008
     FM050900 01005KT P6SM OVC015
     FM051200 VRB05KT P6SM BKN100=



000
FTUS44 KOUN 042009 AAA
TAFSPS
TAF AMD
KSPS 042009Z 0420/0518 02025G30KT 2SM -SN OVC015
     FM050000 02018G28KT 3SM -SN OVC010
     FM050900 01013KT P6SM OVC015
     FM051200 VRB04KT P6SM SCT020 SCT100=



000
FTUS44 KOUN 042009 AAA
TAFSPS
TAF AMD
KSPS 042009Z 0420/0518 02025G30KT 2SM -SN OVC015
     FM050000 02018G28KT 3SM -SN OVC010
     FM050900 01013KT P6SM OVC015
     FM051200 VRB04KT P6SM SCT020 SCT100=



000
FTUS44 KOUN 041951 AAC
TAFPNC
TAF AMD
KPNC 041951Z 0420/0518 02015G20KT 2SM -SN OVC020
      TEMPO 0420/0423 3/4SM BR OVC009
     FM050000 01015G25KT 5SM BR OVC020
      TEMPO 0500/0504 3SM -SN OVC010
     FM050900 VRB04KT P6SM SCT030 BKN150=



000
FTUS44 KOUN 041951 AAC
TAFPNC
TAF AMD
KPNC 041951Z 0420/0518 02015G20KT 2SM -SN OVC020
      TEMPO 0420/0423 3/4SM BR OVC009
     FM050000 01015G25KT 5SM BR OVC020
      TEMPO 0500/0504 3SM -SN OVC010
     FM050900 VRB04KT P6SM SCT030 BKN150=



000
FTUS44 KOUN 041946 AAC
TAFOUN
TAF AMD
KOUN 041946Z 0420/0518 02025G30KT 5SM BR OVC015
      TEMPO 0420/0423 2SM -SN OVC010
     FM050000 01020KT 1SM -SN BR OVC010
     FM050600 02010KT 5SM BR OVC020 PROB30 0506/0510 3SM -SN OVC010
     FM051500 03004KT P6SM SCT020=



000
FTUS44 KOUN 041946 AAC
TAFOUN
TAF AMD
KOUN 041946Z 0420/0518 02025G30KT 5SM BR OVC015
      TEMPO 0420/0423 2SM -SN OVC010
     FM050000 01020KT 1SM -SN BR OVC010
     FM050600 02010KT 5SM BR OVC020 PROB30 0506/0510 3SM -SN OVC010
     FM051500 03004KT P6SM SCT020=



000
FTUS44 KOUN 041946 AAC
TAFOUN
TAF AMD
KOUN 041946Z 0420/0518 02025G30KT 5SM BR OVC015
      TEMPO 0420/0423 2SM -SN OVC010
     FM050000 01020KT 1SM -SN BR OVC010
     FM050600 02010KT 5SM BR OVC020 PROB30 0506/0510 3SM -SN OVC010
     FM051500 03004KT P6SM SCT020=



000
FTUS44 KOUN 041946 AAC
TAFOUN
TAF AMD
KOUN 041946Z 0420/0518 02025G30KT 5SM BR OVC015
      TEMPO 0420/0423 2SM -SN OVC010
     FM050000 01020KT 1SM -SN BR OVC010
     FM050600 02010KT 5SM BR OVC020 PROB30 0506/0510 3SM -SN OVC010
     FM051500 03004KT P6SM SCT020=



000
FTUS44 KOUN 041945 AAB
TAFOKC
TAF AMD
KOKC 041945Z 0420/0518 01020G30KT 5SM BR OVC015
      TEMPO 0420/0423 2SM -SN OVC010
     FM050000 01020KT 1SM -SN BR OVC010
     FM050600 02010KT 5SM BR OVC020 PROB30 0506/0510 3SM -SN OVC010
     FM051500 03004KT P6SM SCT020=



000
FTUS44 KOUN 041945 AAB
TAFOKC
TAF AMD
KOKC 041945Z 0420/0518 01020G30KT 5SM BR OVC015
      TEMPO 0420/0423 2SM -SN OVC010
     FM050000 01020KT 1SM -SN BR OVC010
     FM050600 02010KT 5SM BR OVC020 PROB30 0506/0510 3SM -SN OVC010
     FM051500 03004KT P6SM SCT020=



000
FTUS44 KOUN 041945 AAB
TAFOKC
TAF AMD
KOKC 041945Z 0420/0518 01020G30KT 5SM BR OVC015
      TEMPO 0420/0423 2SM -SN OVC010
     FM050000 01020KT 1SM -SN BR OVC010
     FM050600 02010KT 5SM BR OVC020 PROB30 0506/0510 3SM -SN OVC010
     FM051500 03004KT P6SM SCT020=



000
FTUS44 KOUN 041945 AAB
TAFOKC
TAF AMD
KOKC 041945Z 0420/0518 01020G30KT 5SM BR OVC015
      TEMPO 0420/0423 2SM -SN OVC010
     FM050000 01020KT 1SM -SN BR OVC010
     FM050600 02010KT 5SM BR OVC020 PROB30 0506/0510 3SM -SN OVC010
     FM051500 03004KT P6SM SCT020=



000
FTUS44 KOUN 041929 AAB
TAFOUN
TAF AMD
KOUN 041929Z 0419/0518 02025G30KT 5SM BR OVC015
      TEMPO 0420/0423 1SM -FZRAPL OVC009
     FM050000 01020KT 1SM -SN BR OVC010
     FM050600 02010KT 5SM BR OVC020 PROB30 0506/0510 3SM -SN OVC010
     FM051500 03004KT P6SM SCT020=



000
FTUS44 KOUN 041929 AAB
TAFOUN
TAF AMD
KOUN 041929Z 0419/0518 02025G30KT 5SM BR OVC015
      TEMPO 0420/0423 1SM -FZRAPL OVC009
     FM050000 01020KT 1SM -SN BR OVC010
     FM050600 02010KT 5SM BR OVC020 PROB30 0506/0510 3SM -SN OVC010
     FM051500 03004KT P6SM SCT020=



000
FTUS44 KOUN 041926 AAA
TAFOKC
TAF AMD
KOKC 041926Z 0419/0518 01020G30KT 5SM -FZRA OVC015
     FM042000 01020G30KT 5SM BR OVC015
      TEMPO 0420/0423 1SM -FZRAPL OVC009
     FM050000 01020KT 1SM -SN BR OVC010
     FM050600 02010KT 5SM BR OVC020 PROB30 0506/0510 3SM -SN OVC010
     FM051500 03004KT P6SM SCT020=



000
FTUS44 KOUN 041926 AAA
TAFOKC
TAF AMD
KOKC 041926Z 0419/0518 01020G30KT 5SM -FZRA OVC015
     FM042000 01020G30KT 5SM BR OVC015
      TEMPO 0420/0423 1SM -FZRAPL OVC009
     FM050000 01020KT 1SM -SN BR OVC010
     FM050600 02010KT 5SM BR OVC020 PROB30 0506/0510 3SM -SN OVC010
     FM051500 03004KT P6SM SCT020=



000
FTUS44 KOUN 041910 AAB
TAFPNC
TAF AMD
KPNC 041910Z 0419/0518 02015G30KT 1SM -SN OVC020
     FM042100 02015G25KT 1SM -SN OVC020
     FM050000 01015G25KT 5SM BR OVC020
      TEMPO 0500/0504 3SM -SN OVC010
     FM050900 VRB04KT P6SM SCT030 BKN150=



000
FTUS44 KOUN 041839 AAA
TAFPNC
TAF AMD
KPNC 041839Z 0419/0518 02020G25KT 1/4SM SN FZFG OVC004
     FM042100 02015G25KT 1SM -SN OVC020
     FM050000 01015G25KT 5SM BR OVC020
      TEMPO 0500/0504 3SM -SN OVC010
     FM050900 VRB04KT P6SM SCT030 BKN150=



000
FTUS44 KOUN 041839 AAA
TAFPNC
TAF AMD
KPNC 041839Z 0419/0518 02020G25KT 1/4SM SN FZFG OVC004
     FM042100 02015G25KT 1SM -SN OVC020
     FM050000 01015G25KT 5SM BR OVC020
      TEMPO 0500/0504 3SM -SN OVC010
     FM050900 VRB04KT P6SM SCT030 BKN150=



000
FTUS44 KOUN 041839 AAA
TAFPNC
TAF AMD
KPNC 041839Z 0419/0518 02020G25KT 1/4SM SN FZFG OVC004
     FM042100 02015G25KT 1SM -SN OVC020
     FM050000 01015G25KT 5SM BR OVC020
      TEMPO 0500/0504 3SM -SN OVC010
     FM050900 VRB04KT P6SM SCT030 BKN150=



000
FTUS44 KOUN 041839 AAA
TAFPNC
TAF AMD
KPNC 041839Z 0419/0518 02020G25KT 1/4SM SN FZFG OVC004
     FM042100 02015G25KT 1SM -SN OVC020
     FM050000 01015G25KT 5SM BR OVC020
      TEMPO 0500/0504 3SM -SN OVC010
     FM050900 VRB04KT P6SM SCT030 BKN150=



000
FTUS44 KOUN 041825 AAA
TAFGAG
TAF AMD
KGAG 041825Z 0418/0518 02015G25KT P6SM BKN020 OVC040
      TEMPO 0419/0422 3SM -SN BR OVC008
     FM050100 01009KT P6SM SCT015 OVC050
     FM050800 VRB05KT P6SM SCT050 BKN150=



000
FTUS44 KOUN 041825 AAA
TAFGAG
TAF AMD
KGAG 041825Z 0418/0518 02015G25KT P6SM BKN020 OVC040
      TEMPO 0419/0422 3SM -SN BR OVC008
     FM050100 01009KT P6SM SCT015 OVC050
     FM050800 VRB05KT P6SM SCT050 BKN150=



000
FTUS44 KOUN 041824 AAA
TAFWWR
TAF AMD
KWWR 041824Z 0418/0518 02020G25KT P6SM BKN020 OVC050
      TEMPO 0419/0422 3SM -SN BR OVC008
     FM050100 01009KT P6SM SCT015 OVC050
     FM050800 VRB05KT P6SM SCT050 BKN150=



000
FTUS44 KOUN 041824 AAA
TAFWWR
TAF AMD
KWWR 041824Z 0418/0518 02020G25KT P6SM BKN020 OVC050
      TEMPO 0419/0422 3SM -SN BR OVC008
     FM050100 01009KT P6SM SCT015 OVC050
     FM050800 VRB05KT P6SM SCT050 BKN150=



000
FTUS44 KOUN 041738
TAFOKC
TAF
KOKC 041738Z 0418/0518 01020G30KT 5SM -FZRAPL OVC010
     FM042300 01019G27KT 3SM BR OVC010
      TEMPO 0423/0501 1SM -FZRAPL OVC009
     FM050100 01020KT 1SM -SN BR OVC010
     FM050600 02010KT 5SM BR OVC020 PROB30 0506/0510 3SM -SN OVC010
     FM051500 03004KT P6SM SCT020=



000
FTUS44 KOUN 041738
TAFGAG
TAF
KGAG 041738Z 0418/0518 03020G28KT 4SM BR OVC010
      TEMPO 0418/0420 3SM -SN BR OVC005
     FM042000 02012KT 5SM BR OVC008
     FM050100 01009KT P6SM SCT015 OVC050
     FM050800 VRB05KT P6SM SCT050 BKN150=



000
FTUS44 KOUN 041738
TAFOUN
TAF
KOUN 041738Z 0418/0518 02020G30KT 5SM -FZRA OVC015
     FM042300 01019G27KT 3SM BR OVC010
      TEMPO 0423/0501 1SM -FZRAPL OVC009
     FM050100 01020KT 1SM -SN BR OVC010
     FM050600 02010KT 5SM BR OVC020 PROB30 0506/0510 3SM -SN OVC010
     FM051500 03004KT P6SM SCT020=



000
FTUS44 KOUN 041738
TAFHBR
TAF
KHBR 041738Z 0418/0518 03020G29KT 2SM PLSN OVC010
     FM042000 03020G27KT 2SM PL OVC007
     FM050000 02018G28KT 3SM -SN OVC010
     FM050900 01005KT P6SM OVC015
     FM051200 VRB05KT P6SM BKN100=



000
FTUS44 KOUN 041738
TAFLAW
TAF
KLAW 041738Z 0418/0518 02020G27KT 2SM PLSN OVC010
     FM042000 03020G27KT 2SM PL OVC007
     FM050000 02018G28KT 3SM -SN OVC010
     FM050900 01005KT P6SM OVC015
     FM051200 VRB05KT P6SM BKN100=



000
FTUS44 KOUN 041738
TAFPNC
TAF
KPNC 041738Z 0418/0518 02015G25KT 1SM -SN OVC020
     FM050000 01015G25KT 5SM BR OVC020
      TEMPO 0500/0504 3SM -SN OVC010
     FM050900 VRB04KT P6SM SCT030 BKN150=



000
FTUS44 KOUN 041738
TAFWWR
TAF
KWWR 041738Z 0418/0518 02015G25KT 4SM BR OVC020
      TEMPO 0418/0420 3SM -SN BR OVC005
     FM042000 02012KT 5SM BR OVC008
     FM050100 01009KT P6SM SCT015 OVC050
     FM050800 VRB05KT P6SM SCT050 BKN150=



000
FTUS44 KOUN 041738
TAFWWR
TAF
KWWR 041738Z 0418/0518 02015G25KT 4SM BR OVC020
      TEMPO 0418/0420 3SM -SN BR OVC005
     FM042000 02012KT 5SM BR OVC008
     FM050100 01009KT P6SM SCT015 OVC050
     FM050800 VRB05KT P6SM SCT050 BKN150=



000
FTUS44 KOUN 041738
TAFGAG
TAF
KGAG 041738Z 0418/0518 03020G28KT 4SM BR OVC010
      TEMPO 0418/0420 3SM -SN BR OVC005
     FM042000 02012KT 5SM BR OVC008
     FM050100 01009KT P6SM SCT015 OVC050
     FM050800 VRB05KT P6SM SCT050 BKN150=



000
FTUS44 KOUN 041738
TAFOKC
TAF
KOKC 041738Z 0418/0518 01020G30KT 5SM -FZRAPL OVC010
     FM042300 01019G27KT 3SM BR OVC010
      TEMPO 0423/0501 1SM -FZRAPL OVC009
     FM050100 01020KT 1SM -SN BR OVC010
     FM050600 02010KT 5SM BR OVC020 PROB30 0506/0510 3SM -SN OVC010
     FM051500 03004KT P6SM SCT020=



000
FTUS44 KOUN 041738
TAFOUN
TAF
KOUN 041738Z 0418/0518 02020G30KT 5SM -FZRA OVC015
     FM042300 01019G27KT 3SM BR OVC010
      TEMPO 0423/0501 1SM -FZRAPL OVC009
     FM050100 01020KT 1SM -SN BR OVC010
     FM050600 02010KT 5SM BR OVC020 PROB30 0506/0510 3SM -SN OVC010
     FM051500 03004KT P6SM SCT020=



000
FTUS44 KOUN 041738
TAFPNC
TAF
KPNC 041738Z 0418/0518 02015G25KT 1SM -SN OVC020
     FM050000 01015G25KT 5SM BR OVC020
      TEMPO 0500/0504 3SM -SN OVC010
     FM050900 VRB04KT P6SM SCT030 BKN150=



000
FTUS44 KOUN 041738
TAFLAW
TAF
KLAW 041738Z 0418/0518 02020G27KT 2SM PLSN OVC010
     FM042000 03020G27KT 2SM PL OVC007
     FM050000 02018G28KT 3SM -SN OVC010
     FM050900 01005KT P6SM OVC015
     FM051200 VRB05KT P6SM BKN100=



000
FTUS44 KOUN 041738
TAFSPS
TAF
KSPS 041738Z 0418/0518 01022G30KT 2SM -FZRAPL BR OVC020
     FM042000 03020G27KT 2SM PL OVC007
     FM050000 02018G28KT 3SM -SN OVC010
     FM050900 01013KT P6SM OVC015
     FM051200 VRB04KT P6SM SCT020 SCT100=



000
FTUS44 KOUN 041738
TAFHBR
TAF
KHBR 041738Z 0418/0518 03020G29KT 2SM PLSN OVC010
     FM042000 03020G27KT 2SM PL OVC007
     FM050000 02018G28KT 3SM -SN OVC010
     FM050900 01005KT P6SM OVC015
     FM051200 VRB05KT P6SM BKN100=



000
FTUS44 KOUN 041738
TAFLAW
TAF
KLAW 041738Z 0418/0518 02020G27KT 2SM PLSN OVC010
     FM042000 03020G27KT 2SM PL OVC007
     FM050000 02018G28KT 3SM -SN OVC010
     FM050900 01005KT P6SM OVC015
     FM051200 VRB05KT P6SM BKN100=



000
FTUS44 KOUN 041738
TAFWWR
TAF
KWWR 041738Z 0418/0518 02015G25KT 4SM BR OVC020
      TEMPO 0418/0420 3SM -SN BR OVC005
     FM042000 02012KT 5SM BR OVC008
     FM050100 01009KT P6SM SCT015 OVC050
     FM050800 VRB05KT P6SM SCT050 BKN150=



000
FTUS44 KOUN 041738
TAFPNC
TAF
KPNC 041738Z 0418/0518 02015G25KT 1SM -SN OVC020
     FM050000 01015G25KT 5SM BR OVC020
      TEMPO 0500/0504 3SM -SN OVC010
     FM050900 VRB04KT P6SM SCT030 BKN150=



000
FTUS44 KOUN 041738
TAFWWR
TAF
KWWR 041738Z 0418/0518 02015G25KT 4SM BR OVC020
      TEMPO 0418/0420 3SM -SN BR OVC005
     FM042000 02012KT 5SM BR OVC008
     FM050100 01009KT P6SM SCT015 OVC050
     FM050800 VRB05KT P6SM SCT050 BKN150=



000
FTUS44 KOUN 041738
TAFGAG
TAF
KGAG 041738Z 0418/0518 03020G28KT 4SM BR OVC010
      TEMPO 0418/0420 3SM -SN BR OVC005
     FM042000 02012KT 5SM BR OVC008
     FM050100 01009KT P6SM SCT015 OVC050
     FM050800 VRB05KT P6SM SCT050 BKN150=



000
FTUS44 KOUN 041738
TAFOKC
TAF
KOKC 041738Z 0418/0518 01020G30KT 5SM -FZRAPL OVC010
     FM042300 01019G27KT 3SM BR OVC010
      TEMPO 0423/0501 1SM -FZRAPL OVC009
     FM050100 01020KT 1SM -SN BR OVC010
     FM050600 02010KT 5SM BR OVC020 PROB30 0506/0510 3SM -SN OVC010
     FM051500 03004KT P6SM SCT020=



000
FTUS44 KOUN 041738
TAFGAG
TAF
KGAG 041738Z 0418/0518 03020G28KT 4SM BR OVC010
      TEMPO 0418/0420 3SM -SN BR OVC005
     FM042000 02012KT 5SM BR OVC008
     FM050100 01009KT P6SM SCT015 OVC050
     FM050800 VRB05KT P6SM SCT050 BKN150=



000
FTUS44 KOUN 041738
TAFOUN
TAF
KOUN 041738Z 0418/0518 02020G30KT 5SM -FZRA OVC015
     FM042300 01019G27KT 3SM BR OVC010
      TEMPO 0423/0501 1SM -FZRAPL OVC009
     FM050100 01020KT 1SM -SN BR OVC010
     FM050600 02010KT 5SM BR OVC020 PROB30 0506/0510 3SM -SN OVC010
     FM051500 03004KT P6SM SCT020=



000
FTUS44 KOUN 041738
TAFHBR
TAF
KHBR 041738Z 0418/0518 03020G29KT 2SM PLSN OVC010
     FM042000 03020G27KT 2SM PL OVC007
     FM050000 02018G28KT 3SM -SN OVC010
     FM050900 01005KT P6SM OVC015
     FM051200 VRB05KT P6SM BKN100=



000
FTUS44 KOUN 041738
TAFOKC
TAF
KOKC 041738Z 0418/0518 01020G30KT 5SM -FZRAPL OVC010
     FM042300 01019G27KT 3SM BR OVC010
      TEMPO 0423/0501 1SM -FZRAPL OVC009
     FM050100 01020KT 1SM -SN BR OVC010
     FM050600 02010KT 5SM BR OVC020 PROB30 0506/0510 3SM -SN OVC010
     FM051500 03004KT P6SM SCT020=



000
FTUS44 KOUN 041738
TAFOUN
TAF
KOUN 041738Z 0418/0518 02020G30KT 5SM -FZRA OVC015
     FM042300 01019G27KT 3SM BR OVC010
      TEMPO 0423/0501 1SM -FZRAPL OVC009
     FM050100 01020KT 1SM -SN BR OVC010
     FM050600 02010KT 5SM BR OVC020 PROB30 0506/0510 3SM -SN OVC010
     FM051500 03004KT P6SM SCT020=



000
FTUS44 KOUN 041738
TAFPNC
TAF
KPNC 041738Z 0418/0518 02015G25KT 1SM -SN OVC020
     FM050000 01015G25KT 5SM BR OVC020
      TEMPO 0500/0504 3SM -SN OVC010
     FM050900 VRB04KT P6SM SCT030 BKN150=



000
FTUS44 KOUN 041738
TAFHBR
TAF
KHBR 041738Z 0418/0518 03020G29KT 2SM PLSN OVC010
     FM042000 03020G27KT 2SM PL OVC007
     FM050000 02018G28KT 3SM -SN OVC010
     FM050900 01005KT P6SM OVC015
     FM051200 VRB05KT P6SM BKN100=



000
FTUS44 KOUN 041738
TAFSPS
TAF
KSPS 041738Z 0418/0518 01022G30KT 2SM -FZRAPL BR OVC020
     FM042000 03020G27KT 2SM PL OVC007
     FM050000 02018G28KT 3SM -SN OVC010
     FM050900 01013KT P6SM OVC015
     FM051200 VRB04KT P6SM SCT020 SCT100=



000
FTUS44 KOUN 041738
TAFLAW
TAF
KLAW 041738Z 0418/0518 02020G27KT 2SM PLSN OVC010
     FM042000 03020G27KT 2SM PL OVC007
     FM050000 02018G28KT 3SM -SN OVC010
     FM050900 01005KT P6SM OVC015
     FM051200 VRB05KT P6SM BKN100=



000
FTUS44 KOUN 041549 AAB
TAFOKC
TAF AMD
KOKC 041549Z 0416/0512 01020G30KT 5SM -FZRAPL OVC020
     FM042000 01019G27KT 1SM -SN OVC007
     FM050100 01016G27KT 5SM -SN BR OVC010
     FM050600 02013KT 5SM BR OVC015=



000
FTUS44 KOUN 041549 AAB
TAFOKC
TAF AMD
KOKC 041549Z 0416/0512 01020G30KT 5SM -FZRAPL OVC020
     FM042000 01019G27KT 1SM -SN OVC007
     FM050100 01016G27KT 5SM -SN BR OVC010
     FM050600 02013KT 5SM BR OVC015=



000
FTUS44 KOUN 041529 AAB
TAFOUN
TAF AMD
KOUN 041529Z 0415/0512 02020G30KT P6SM OVC020
      TEMPO 0416/0420 2SM -FZRAPLSN BR OVC005
     FM042000 01019G27KT 1SM -SN OVC007
     FM050100 01016G27KT 5SM -SN BR OVC010
     FM050600 02013KT 5SM BR OVC015=



000
FTUS44 KOUN 041526 AAA
TAFSPS
TAF AMD
KSPS 041526Z 0415/0512 02020G30KT 6SM BR OVC020
      TEMPO 0415/0416 2SM -RA BR OVC015
     FM041700 01022G30KT 2SM -FZRAPL BR OVC010
     FM042000 03020G27KT 2SM PL OVC007
     FM050000 02018G28KT 3SM -SN OVC007
     FM050500 01013KT P6SM OVC015=



000
FTUS44 KOUN 041526 AAA
TAFSPS
TAF AMD
KSPS 041526Z 0415/0512 02020G30KT 6SM BR OVC020
      TEMPO 0415/0416 2SM -RA BR OVC015
     FM041700 01022G30KT 2SM -FZRAPL BR OVC010
     FM042000 03020G27KT 2SM PL OVC007
     FM050000 02018G28KT 3SM -SN OVC007
     FM050500 01013KT P6SM OVC015=



000
FTUS44 KOUN 041516 AAA
TAFOKC
TAF AMD
KOKC 041516Z 0415/0512 36015G25KT P6SM OVC020
      TEMPO 0416/0420 2SM -FZRAPLSN BR OVC005
     FM042000 01019G27KT 1SM -SN OVC007
     FM050100 01016G27KT 5SM -SN BR OVC010
     FM050600 02013KT 5SM BR OVC015=



000
FTUS44 KOUN 041516 AAA
TAFOKC
TAF AMD
KOKC 041516Z 0415/0512 36015G25KT P6SM OVC020
      TEMPO 0416/0420 2SM -FZRAPLSN BR OVC005
     FM042000 01019G27KT 1SM -SN OVC007
     FM050100 01016G27KT 5SM -SN BR OVC010
     FM050600 02013KT 5SM BR OVC015=



000
FTUS44 KOUN 041516 AAA
TAFOKC
TAF AMD
KOKC 041516Z 0415/0512 36015G25KT P6SM OVC020
      TEMPO 0416/0420 2SM -FZRAPLSN BR OVC005
     FM042000 01019G27KT 1SM -SN OVC007
     FM050100 01016G27KT 5SM -SN BR OVC010
     FM050600 02013KT 5SM BR OVC015=



000
FTUS44 KOUN 041516 AAA
TAFOKC
TAF AMD
KOKC 041516Z 0415/0512 36015G25KT P6SM OVC020
      TEMPO 0416/0420 2SM -FZRAPLSN BR OVC005
     FM042000 01019G27KT 1SM -SN OVC007
     FM050100 01016G27KT 5SM -SN BR OVC010
     FM050600 02013KT 5SM BR OVC015=



000
FTUS44 KOUN 041507 AAB
TAFWWR
TAF AMD
KWWR 041507Z 0415/0512 02015G25KT 4SM BR OVC009
      TEMPO 0416/0420 3SM -SN BR OVC005
     FM042000 02012KT 5SM BR OVC008
     FM050100 01009KT P6SM SCT015 OVC050
     FM050800 VRB05KT P6SM SCT050 BKN150=



000
FTUS44 KOUN 041507 AAB
TAFWWR
TAF AMD
KWWR 041507Z 0415/0512 02015G25KT 4SM BR OVC009
      TEMPO 0416/0420 3SM -SN BR OVC005
     FM042000 02012KT 5SM BR OVC008
     FM050100 01009KT P6SM SCT015 OVC050
     FM050800 VRB05KT P6SM SCT050 BKN150=



000
FTUS44 KOUN 041507 AAB
TAFWWR
TAF AMD
KWWR 041507Z 0415/0512 02015G25KT 4SM BR OVC009
      TEMPO 0416/0420 3SM -SN BR OVC005
     FM042000 02012KT 5SM BR OVC008
     FM050100 01009KT P6SM SCT015 OVC050
     FM050800 VRB05KT P6SM SCT050 BKN150=



000
FTUS44 KOUN 041507 AAB
TAFWWR
TAF AMD
KWWR 041507Z 0415/0512 02015G25KT 4SM BR OVC009
      TEMPO 0416/0420 3SM -SN BR OVC005
     FM042000 02012KT 5SM BR OVC008
     FM050100 01009KT P6SM SCT015 OVC050
     FM050800 VRB05KT P6SM SCT050 BKN150=



000
FTUS44 KOUN 041504 AAA
TAFGAG
TAF AMD
KGAG 041504Z 0415/0512 03020G28KT 4SM BR OVC010
      TEMPO 0416/0420 3SM -SN BR OVC005
     FM042000 02012KT 5SM BR OVC008
     FM050100 01009KT P6SM SCT015 OVC050
     FM050800 VRB05KT P6SM SCT050 BKN150=



000
FTUS44 KOUN 041504 AAA
TAFGAG
TAF AMD
KGAG 041504Z 0415/0512 03020G28KT 4SM BR OVC010
      TEMPO 0416/0420 3SM -SN BR OVC005
     FM042000 02012KT 5SM BR OVC008
     FM050100 01009KT P6SM SCT015 OVC050
     FM050800 VRB05KT P6SM SCT050 BKN150=



000
FTUS44 KOUN 041504 AAA
TAFGAG
TAF AMD
KGAG 041504Z 0415/0512 03020G28KT 4SM BR OVC010
      TEMPO 0416/0420 3SM -SN BR OVC005
     FM042000 02012KT 5SM BR OVC008
     FM050100 01009KT P6SM SCT015 OVC050
     FM050800 VRB05KT P6SM SCT050 BKN150=



000
FTUS44 KOUN 041504 AAA
TAFGAG
TAF AMD
KGAG 041504Z 0415/0512 03020G28KT 4SM BR OVC010
      TEMPO 0416/0420 3SM -SN BR OVC005
     FM042000 02012KT 5SM BR OVC008
     FM050100 01009KT P6SM SCT015 OVC050
     FM050800 VRB05KT P6SM SCT050 BKN150=



000
FTUS44 KOUN 041500 AAA
TAFWWR
TAF AMD
KWWR 041500Z 0415/0512 02015G25KT 4SM -SN OVC006
      TEMPO 0416/0420 3SM -SN BR OVC005
     FM042000 02012KT 5SM BR OVC008
     FM050100 01009KT P6SM SCT015 OVC050
     FM050800 VRB05KT P6SM SCT050 BKN150=



000
FTUS44 KOUN 041120
TAFOUN
TAF
KOUN 041120Z 0412/0512 01016G25KT P6SM OVC020
      TEMPO 0412/0415 4SM -FZRA BR OVC010
     FM041500 01020G28KT 2SM FZRAPLSN OVC010
     FM042000 01019G27KT 1SM -SN OVC007
     FM050100 01016G27KT 5SM -SN BR OVC010
     FM050600 02013KT 5SM BR OVC015=



000
FTUS44 KOUN 041120
TAFOKC
TAF
KOKC 041120Z 0412/0512 01018G26KT P6SM OVC020
      TEMPO 0412/0415 5SM -FZRA BR OVC010
     FM041500 01020G28KT 2SM FZRAPLSN OVC010
     FM042000 01019G27KT 1SM -SN OVC007
     FM050100 01016G27KT 5SM -SN BR OVC010
     FM050600 02013KT 5SM BR OVC015=



000
FTUS44 KOUN 041120
TAFPNC
TAF
KPNC 041120Z 0412/0512 01019G28KT P6SM OVC025
      TEMPO 0412/0416 4SM -SNPL BR OVC010
     FM041600 02019G29KT 3SM -SN OVC010
     FM050000 01012KT P6SM SCT015 OVC030
     FM050900 VRB04KT P6SM SCT030 BKN150=



000
FTUS44 KOUN 041120
TAFPNC
TAF
KPNC 041120Z 0412/0512 01019G28KT P6SM OVC025
      TEMPO 0412/0416 4SM -SNPL BR OVC010
     FM041600 02019G29KT 3SM -SN OVC010
     FM050000 01012KT P6SM SCT015 OVC030
     FM050900 VRB04KT P6SM SCT030 BKN150=



000
FTUS44 KOUN 041120
TAFGAG
TAF
KGAG 041120Z 0412/0512 03019G28KT P6SM OVC015
      TEMPO 0412/0415 5SM -SN BR OVC010
     FM041500 02019G29KT 3SM -SN OVC010
     FM042000 02012KT 5SM BR OVC008
     FM050100 01009KT P6SM SCT015 OVC050
     FM050800 VRB05KT P6SM SCT050 BKN150=



000
FTUS44 KOUN 041120
TAFLAW
TAF
KLAW 041120Z 0412/0512 02018G28KT P6SM VCSH BKN025 OVC100
      TEMPO 0412/0415 -RA OVC025
     FM041500 01024G30KT 4SM -FZRAPL BR OVC010
     FM041800 02020G27KT 2SM PLSN OVC010
     FM042100 03019G27KT 2SM -SN OVC007
     FM050300 02014KT P6SM SCT015 OVC030=



000
FTUS44 KOUN 041120
TAFOUN
TAF
KOUN 041120Z 0412/0512 01016G25KT P6SM OVC020
      TEMPO 0412/0415 4SM -FZRA BR OVC010
     FM041500 01020G28KT 2SM FZRAPLSN OVC010
     FM042000 01019G27KT 1SM -SN OVC007
     FM050100 01016G27KT 5SM -SN BR OVC010
     FM050600 02013KT 5SM BR OVC015=



000
FTUS44 KOUN 041120
TAFOKC
TAF
KOKC 041120Z 0412/0512 01018G26KT P6SM OVC020
      TEMPO 0412/0415 5SM -FZRA BR OVC010
     FM041500 01020G28KT 2SM FZRAPLSN OVC010
     FM042000 01019G27KT 1SM -SN OVC007
     FM050100 01016G27KT 5SM -SN BR OVC010
     FM050600 02013KT 5SM BR OVC015=



000
FTUS44 KOUN 041120
TAFSPS
TAF
KSPS 041120Z 0412/0512 02015G27KT 5SM -RA BR SCT015 OVC030
      TEMPO 0412/0416 2SM -RA BR OVC015
     FM041700 01022G30KT 2SM -FZRAPL BR OVC010
     FM042000 03020G27KT 2SM PL OVC007
     FM050000 02018G28KT 3SM -SN OVC007
     FM050500 01013KT P6SM OVC015=



000
FTUS44 KOUN 041120
TAFHBR
TAF
KHBR 041120Z 0412/0512 04020G28KT P6SM OVC020
     FM041400 02022G30KT 4SM -FZRAPL OVC015
     FM041600 03020G29KT 2SM PLSN OVC010
     FM042200 02018G27KT 4SM -SN OVC007
     FM050300 03014KT P6SM SCT015 OVC030
     FM051100 36008KT P6SM SCT030 BKN150=



000
FTUS44 KOUN 041120
TAFWWR
TAF
KWWR 041120Z 0412/0512 02017G25KT P6SM OVC015
      TEMPO 0412/0415 5SM -SN BR OVC010
     FM041500 02019G28KT 3SM -SN OVC010
     FM042000 02012KT 5SM BR OVC008
     FM050100 01009KT P6SM SCT015 OVC050
     FM050800 VRB05KT P6SM SCT050 BKN150=



000
FTUS44 KOUN 041120
TAFGAG
TAF
KGAG 041120Z 0412/0512 03019G28KT P6SM OVC015
      TEMPO 0412/0415 5SM -SN BR OVC010
     FM041500 02019G29KT 3SM -SN OVC010
     FM042000 02012KT 5SM BR OVC008
     FM050100 01009KT P6SM SCT015 OVC050
     FM050800 VRB05KT P6SM SCT050 BKN150=



000
FTUS44 KOUN 041120
TAFOKC
TAF
KOKC 041120Z 0412/0512 01018G26KT P6SM OVC020
      TEMPO 0412/0415 5SM -FZRA BR OVC010
     FM041500 01020G28KT 2SM FZRAPLSN OVC010
     FM042000 01019G27KT 1SM -SN OVC007
     FM050100 01016G27KT 5SM -SN BR OVC010
     FM050600 02013KT 5SM BR OVC015=



000
FTUS44 KOUN 041113 AAA
TAFOKC
TAF AMD
KOKC 041113Z 0411/0506 01019G26KT P6SM BKN020 OVC100
     FM041330 01020G28KT 2SM -FZRA BR OVC010
     FM041500 01020G28KT 2SM PL OVC006
     FM042200 01018G27KT 1SM -SN OVC003
     FM050300 03013KT 5SM BR OVC015=



000
FTUS44 KOUN 041113 AAA
TAFOKC
TAF AMD
KOKC 041113Z 0411/0506 01019G26KT P6SM BKN020 OVC100
     FM041330 01020G28KT 2SM -FZRA BR OVC010
     FM041500 01020G28KT 2SM PL OVC006
     FM042200 01018G27KT 1SM -SN OVC003
     FM050300 03013KT 5SM BR OVC015=



000
FTUS44 KOUN 041113 AAA
TAFOKC
TAF AMD
KOKC 041113Z 0411/0506 01019G26KT P6SM BKN020 OVC100
     FM041330 01020G28KT 2SM -FZRA BR OVC010
     FM041500 01020G28KT 2SM PL OVC006
     FM042200 01018G27KT 1SM -SN OVC003
     FM050300 03013KT 5SM BR OVC015=



000
FTUS44 KOUN 041113 AAA
TAFOKC
TAF AMD
KOKC 041113Z 0411/0506 01019G26KT P6SM BKN020 OVC100
     FM041330 01020G28KT 2SM -FZRA BR OVC010
     FM041500 01020G28KT 2SM PL OVC006
     FM042200 01018G27KT 1SM -SN OVC003
     FM050300 03013KT 5SM BR OVC015=



000
FTUS44 KOUN 041109 AAB
TAFSPS
TAF AMD
KSPS 041109Z 0411/0506 02014G27KT 5SM -RA BR BKN015 OVC028
     FM041700 01024G30KT 2SM -FZRAPL BR OVC006
     FM042100 03019G27KT 2SM PL OVC005
     FM050300 03013KT P6SM SCT015 OVC050=



000
FTUS44 KOUN 041109 AAB
TAFSPS
TAF AMD
KSPS 041109Z 0411/0506 02014G27KT 5SM -RA BR BKN015 OVC028
     FM041700 01024G30KT 2SM -FZRAPL BR OVC006
     FM042100 03019G27KT 2SM PL OVC005
     FM050300 03013KT P6SM SCT015 OVC050=



000
FTUS44 KOUN 041109 AAB
TAFSPS
TAF AMD
KSPS 041109Z 0411/0506 02014G27KT 5SM -RA BR BKN015 OVC028
     FM041700 01024G30KT 2SM -FZRAPL BR OVC006
     FM042100 03019G27KT 2SM PL OVC005
     FM050300 03013KT P6SM SCT015 OVC050=



000
FTUS44 KOUN 041109 AAB
TAFSPS
TAF AMD
KSPS 041109Z 0411/0506 02014G27KT 5SM -RA BR BKN015 OVC028
     FM041700 01024G30KT 2SM -FZRAPL BR OVC006
     FM042100 03019G27KT 2SM PL OVC005
     FM050300 03013KT P6SM SCT015 OVC050=



000
FTUS44 KOUN 040743 AAA
TAFSPS
TAF AMD
KSPS 040743Z 0408/0506 08004KT 1/4SM FG VV002
      TEMPO 0408/0412 3/4SM -RA BR OVC003
     FM041200 02014G27KT 1SM BR OVC005
      TEMPO 0412/0416 -RA
     FM041700 01024G30KT 2SM -FZRAPL BR OVC006
     FM042100 03019G27KT 2SM PL OVC005
     FM050300 03013KT P6SM SCT015 OVC050=



000
FTUS44 KOUN 040743 AAA
TAFSPS
TAF AMD
KSPS 040743Z 0408/0506 08004KT 1/4SM FG VV002
      TEMPO 0408/0412 3/4SM -RA BR OVC003
     FM041200 02014G27KT 1SM BR OVC005
      TEMPO 0412/0416 -RA
     FM041700 01024G30KT 2SM -FZRAPL BR OVC006
     FM042100 03019G27KT 2SM PL OVC005
     FM050300 03013KT P6SM SCT015 OVC050=



000
FTUS44 KOUN 040743 AAA
TAFSPS
TAF AMD
KSPS 040743Z 0408/0506 08004KT 1/4SM FG VV002
      TEMPO 0408/0412 3/4SM -RA BR OVC003
     FM041200 02014G27KT 1SM BR OVC005
      TEMPO 0412/0416 -RA
     FM041700 01024G30KT 2SM -FZRAPL BR OVC006
     FM042100 03019G27KT 2SM PL OVC005
     FM050300 03013KT P6SM SCT015 OVC050=



000
FTUS44 KOUN 040743 AAA
TAFSPS
TAF AMD
KSPS 040743Z 0408/0506 08004KT 1/4SM FG VV002
      TEMPO 0408/0412 3/4SM -RA BR OVC003
     FM041200 02014G27KT 1SM BR OVC005
      TEMPO 0412/0416 -RA
     FM041700 01024G30KT 2SM -FZRAPL BR OVC006
     FM042100 03019G27KT 2SM PL OVC005
     FM050300 03013KT P6SM SCT015 OVC050=



000
FTUS44 KOUN 040540
TAFGAG
TAF
KGAG 040540Z 0406/0506 03010KT P6SM OVC025
     FM040800 02015G22KT 5SM BR OVC015
      TEMPO 0408/0412 3SM -SNPL BR OVC008
     FM041200 02015KT 1SM -SN OVC004
     FM042000 02012KT 5SM BR OVC008
     FM050100 01009KT P6SM SCT015 OVC050=



000
FTUS44 KOUN 040540
TAFHBR
TAF
KHBR 040540Z 0406/0506 04013KT P6SM SCT020 OVC150
     FM040800 02018G28KT 5SM BR OVC015
      TEMPO 0408/0412 -RA OVC010
     FM041300 02020G28KT 2SM -FZRAPL OVC006
     FM041600 03018G27KT 2SM PLSN OVC005
     FM050200 03013KT P6SM SCT015 OVC050=



000
FTUS44 KOUN 040540
TAFWWR
TAF
KWWR 040540Z 0406/0506 03010KT P6SM OVC025
     FM040800 02015G22KT 5SM BR OVC015
      TEMPO 0408/0412 3SM -SNPL BR OVC008
     FM041200 02015KT 1SM -SN OVC004
     FM042000 02012KT 5SM BR OVC008
     FM050100 01009KT P6SM SCT015 OVC050=



000
FTUS44 KOUN 040540
TAFPNC
TAF
KPNC 040540Z 0406/0506 03015G27KT P6SM OVC025
      TEMPO 0409/0412 3SM -PL BR OVC007
     FM041200 01020G26KT 2SM -SNPL BR OVC006
     FM041600 02015KT 1SM -SN OVC004
     FM050100 01009KT P6SM SCT015 OVC050=



000
FTUS44 KOUN 040540
TAFOKC
TAF
KOKC 040540Z 0406/0506 01010KT P6SM BKN020 OVC150
     FM041200 01020G28KT 2SM -FZRA BR OVC004
     FM041400 01020G28KT 2SM PL OVC004
     FM042200 01018G27KT 1SM -SN OVC003
     FM050300 03013KT 5SM BR OVC015=



000
FTUS44 KOUN 040540
TAFOUN
TAF
KOUN 040540Z 0406/0506 02010KT P6SM SCT030 BKN150
     FM040800 02015G23KT P6SM OVC020
     FM041300 01020G28KT 2SM -FZRA BR OVC004
     FM041600 01020G28KT 2SM PL OVC004
     FM042200 01018G27KT 1SM -SN OVC003
     FM050300 03013KT 5SM BR OVC015=



000
FTUS44 KOUN 040540
TAFSPS
TAF
KSPS 040540Z 0406/0506 09010KT 5SM BR SCT020 BKN100
     FM040800 03012KT P6SM OVC025
      TEMPO 0408/0412 -RA OVC015
     FM041200 02014G27KT 4SM BR OVC009
      TEMPO 0412/0416 -RA
     FM041700 01024G30KT 2SM -FZRAPL BR OVC006
     FM042100 03019G27KT 2SM PL OVC005
     FM050300 03013KT P6SM SCT015 OVC050=



000
FTUS44 KOUN 040540
TAFLAW
TAF
KLAW 040540Z 0406/0506 02016G26KT P6SM SCT020 BKN100
      TEMPO 0408/0412 -RA OVC015
     FM041200 02014G27KT 4SM BR OVC009
      TEMPO 0412/0416 -RA
     FM041600 01024G30KT 2SM -FZRAPL BR OVC006
     FM041900 03019G27KT 2SM PL OVC005
     FM050300 03013KT P6SM SCT015 OVC050=



000
FTUS44 KOUN 040540
TAFOKC
TAF
KOKC 040540Z 0406/0506 01010KT P6SM BKN020 OVC150
     FM041200 01020G28KT 2SM -FZRA BR OVC004
     FM041400 01020G28KT 2SM PL OVC004
     FM042200 01018G27KT 1SM -SN OVC003
     FM050300 03013KT 5SM BR OVC015=



000
FTUS44 KOUN 040540
TAFOUN
TAF
KOUN 040540Z 0406/0506 02010KT P6SM SCT030 BKN150
     FM040800 02015G23KT P6SM OVC020
     FM041300 01020G28KT 2SM -FZRA BR OVC004
     FM041600 01020G28KT 2SM PL OVC004
     FM042200 01018G27KT 1SM -SN OVC003
     FM050300 03013KT 5SM BR OVC015=



000
FTUS44 KOUN 040540
TAFHBR
TAF
KHBR 040540Z 0406/0506 04013KT P6SM SCT020 OVC150
     FM040800 02018G28KT 5SM BR OVC015
      TEMPO 0408/0412 -RA OVC010
     FM041300 02020G28KT 2SM -FZRAPL OVC006
     FM041600 03018G27KT 2SM PLSN OVC005
     FM050200 03013KT P6SM SCT015 OVC050=



000
FTUS44 KOUN 040540
TAFPNC
TAF
KPNC 040540Z 0406/0506 03015G27KT P6SM OVC025
      TEMPO 0409/0412 3SM -PL BR OVC007
     FM041200 01020G26KT 2SM -SNPL BR OVC006
     FM041600 02015KT 1SM -SN OVC004
     FM050100 01009KT P6SM SCT015 OVC050=



000
FTUS44 KOUN 040540
TAFLAW
TAF
KLAW 040540Z 0406/0506 02016G26KT P6SM SCT020 BKN100
      TEMPO 0408/0412 -RA OVC015
     FM041200 02014G27KT 4SM BR OVC009
      TEMPO 0412/0416 -RA
     FM041600 01024G30KT 2SM -FZRAPL BR OVC006
     FM041900 03019G27KT 2SM PL OVC005
     FM050300 03013KT P6SM SCT015 OVC050=



000
FTUS44 KOUN 040540
TAFWWR
TAF
KWWR 040540Z 0406/0506 03010KT P6SM OVC025
     FM040800 02015G22KT 5SM BR OVC015
      TEMPO 0408/0412 3SM -SNPL BR OVC008
     FM041200 02015KT 1SM -SN OVC004
     FM042000 02012KT 5SM BR OVC008
     FM050100 01009KT P6SM SCT015 OVC050=



000
FTUS44 KOUN 040540
TAFOUN
TAF
KOUN 040540Z 0406/0506 02010KT P6SM SCT030 BKN150
     FM040800 02015G23KT P6SM OVC020
     FM041300 01020G28KT 2SM -FZRA BR OVC004
     FM041600 01020G28KT 2SM PL OVC004
     FM042200 01018G27KT 1SM -SN OVC003
     FM050300 03013KT 5SM BR OVC015=



000
FTUS44 KOUN 040540
TAFSPS
TAF
KSPS 040540Z 0406/0506 09010KT 5SM BR SCT020 BKN100
     FM040800 03012KT P6SM OVC025
      TEMPO 0408/0412 -RA OVC015
     FM041200 02014G27KT 4SM BR OVC009
      TEMPO 0412/0416 -RA
     FM041700 01024G30KT 2SM -FZRAPL BR OVC006
     FM042100 03019G27KT 2SM PL OVC005
     FM050300 03013KT P6SM SCT015 OVC050=



000
FTUS44 KOUN 040540
TAFWWR
TAF
KWWR 040540Z 0406/0506 03010KT P6SM OVC025
     FM040800 02015G22KT 5SM BR OVC015
      TEMPO 0408/0412 3SM -SNPL BR OVC008
     FM041200 02015KT 1SM -SN OVC004
     FM042000 02012KT 5SM BR OVC008
     FM050100 01009KT P6SM SCT015 OVC050=



000
FTUS44 KOUN 040540
TAFPNC
TAF
KPNC 040540Z 0406/0506 03015G27KT P6SM OVC025
      TEMPO 0409/0412 3SM -PL BR OVC007
     FM041200 01020G26KT 2SM -SNPL BR OVC006
     FM041600 02015KT 1SM -SN OVC004
     FM050100 01009KT P6SM SCT015 OVC050=



000
FTUS44 KOUN 040540
TAFOKC
TAF
KOKC 040540Z 0406/0506 01010KT P6SM BKN020 OVC150
     FM041200 01020G28KT 2SM -FZRA BR OVC004
     FM041400 01020G28KT 2SM PL OVC004
     FM042200 01018G27KT 1SM -SN OVC003
     FM050300 03013KT 5SM BR OVC015=



000
FTUS44 KOUN 040540
TAFGAG
TAF
KGAG 040540Z 0406/0506 03010KT P6SM OVC025
     FM040800 02015G22KT 5SM BR OVC015
      TEMPO 0408/0412 3SM -SNPL BR OVC008
     FM041200 02015KT 1SM -SN OVC004
     FM042000 02012KT 5SM BR OVC008
     FM050100 01009KT P6SM SCT015 OVC050=



000
FTUS44 KOUN 040540
TAFSPS
TAF
KSPS 040540Z 0406/0506 09010KT 5SM BR SCT020 BKN100
     FM040800 03012KT P6SM OVC025
      TEMPO 0408/0412 -RA OVC015
     FM041200 02014G27KT 4SM BR OVC009
      TEMPO 0412/0416 -RA
     FM041700 01024G30KT 2SM -FZRAPL BR OVC006
     FM042100 03019G27KT 2SM PL OVC005
     FM050300 03013KT P6SM SCT015 OVC050=



000
FTUS44 KOUN 040540
TAFHBR
TAF
KHBR 040540Z 0406/0506 04013KT P6SM SCT020 OVC150
     FM040800 02018G28KT 5SM BR OVC015
      TEMPO 0408/0412 -RA OVC010
     FM041300 02020G28KT 2SM -FZRAPL OVC006
     FM041600 03018G27KT 2SM PLSN OVC005
     FM050200 03013KT P6SM SCT015 OVC050=



000
FTUS44 KOUN 040540
TAFGAG
TAF
KGAG 040540Z 0406/0506 03010KT P6SM OVC025
     FM040800 02015G22KT 5SM BR OVC015
      TEMPO 0408/0412 3SM -SNPL BR OVC008
     FM041200 02015KT 1SM -SN OVC004
     FM042000 02012KT 5SM BR OVC008
     FM050100 01009KT P6SM SCT015 OVC050=



000
FTUS44 KOUN 040540
TAFLAW
TAF
KLAW 040540Z 0406/0506 02016G26KT P6SM SCT020 BKN100
      TEMPO 0408/0412 -RA OVC015
     FM041200 02014G27KT 4SM BR OVC009
      TEMPO 0412/0416 -RA
     FM041600 01024G30KT 2SM -FZRAPL BR OVC006
     FM041900 03019G27KT 2SM PL OVC005
     FM050300 03013KT P6SM SCT015 OVC050=



000
FTUS44 KOUN 040540
TAFOUN
TAF
KOUN 040540Z 0406/0506 02010KT P6SM SCT030 BKN150
     FM040800 02015G23KT P6SM OVC020
     FM041300 01020G28KT 2SM -FZRA BR OVC004
     FM041600 01020G28KT 2SM PL OVC004
     FM042200 01018G27KT 1SM -SN OVC003
     FM050300 03013KT 5SM BR OVC015=



000
FTUS44 KOUN 040540
TAFOKC
TAF
KOKC 040540Z 0406/0506 01010KT P6SM BKN020 OVC150
     FM041200 01020G28KT 2SM -FZRA BR OVC004
     FM041400 01020G28KT 2SM PL OVC004
     FM042200 01018G27KT 1SM -SN OVC003
     FM050300 03013KT 5SM BR OVC015=



000
FTUS44 KOUN 040540
TAFGAG
TAF
KGAG 040540Z 0406/0506 03010KT P6SM OVC025
     FM040800 02015G22KT 5SM BR OVC015
      TEMPO 0408/0412 3SM -SNPL BR OVC008
     FM041200 02015KT 1SM -SN OVC004
     FM042000 02012KT 5SM BR OVC008
     FM050100 01009KT P6SM SCT015 OVC050=



000
FTUS44 KOUN 040540
TAFPNC
TAF
KPNC 040540Z 0406/0506 03015G27KT P6SM OVC025
      TEMPO 0409/0412 3SM -PL BR OVC007
     FM041200 01020G26KT 2SM -SNPL BR OVC006
     FM041600 02015KT 1SM -SN OVC004
     FM050100 01009KT P6SM SCT015 OVC050=



000
FTUS44 KOUN 040540
TAFLAW
TAF
KLAW 040540Z 0406/0506 02016G26KT P6SM SCT020 BKN100
      TEMPO 0408/0412 -RA OVC015
     FM041200 02014G27KT 4SM BR OVC009
      TEMPO 0412/0416 -RA
     FM041600 01024G30KT 2SM -FZRAPL BR OVC006
     FM041900 03019G27KT 2SM PL OVC005
     FM050300 03013KT P6SM SCT015 OVC050=



000
FTUS44 KOUN 040540
TAFWWR
TAF
KWWR 040540Z 0406/0506 03010KT P6SM OVC025
     FM040800 02015G22KT 5SM BR OVC015
      TEMPO 0408/0412 3SM -SNPL BR OVC008
     FM041200 02015KT 1SM -SN OVC004
     FM042000 02012KT 5SM BR OVC008
     FM050100 01009KT P6SM SCT015 OVC050=



000
FTUS44 KOUN 040540
TAFSPS
TAF
KSPS 040540Z 0406/0506 09010KT 5SM BR SCT020 BKN100
     FM040800 03012KT P6SM OVC025
      TEMPO 0408/0412 -RA OVC015
     FM041200 02014G27KT 4SM BR OVC009
      TEMPO 0412/0416 -RA
     FM041700 01024G30KT 2SM -FZRAPL BR OVC006
     FM042100 03019G27KT 2SM PL OVC005
     FM050300 03013KT P6SM SCT015 OVC050=



000
FTUS44 KOUN 040540
TAFHBR
TAF
KHBR 040540Z 0406/0506 04013KT P6SM SCT020 OVC150
     FM040800 02018G28KT 5SM BR OVC015
      TEMPO 0408/0412 -RA OVC010
     FM041300 02020G28KT 2SM -FZRAPL OVC006
     FM041600 03018G27KT 2SM PLSN OVC005
     FM050200 03013KT P6SM SCT015 OVC050=



000
FTUS44 KOUN 040319 AAA
TAFPNC
TAF AMD
KPNC 040319Z 0403/0424 02010G19KT 5SM BR SCT020 OVC060
     FM040600 03015G27KT 5SM BR OVC020
      TEMPO 0409/0412 3SM -PL BR OVC007
     FM041200 01020G26KT 2SM -SNPL BR OVC006
     FM041600 02015KT 1SM -SN OVC004=



000
FTUS44 KOUN 040319 AAA
TAFPNC
TAF AMD
KPNC 040319Z 0403/0424 02010G19KT 5SM BR SCT020 OVC060
     FM040600 03015G27KT 5SM BR OVC020
      TEMPO 0409/0412 3SM -PL BR OVC007
     FM041200 01020G26KT 2SM -SNPL BR OVC006
     FM041600 02015KT 1SM -SN OVC004=



000
FTUS44 KOUN 040319 AAA
TAFPNC
TAF AMD
KPNC 040319Z 0403/0424 02010G19KT 5SM BR SCT020 OVC060
     FM040600 03015G27KT 5SM BR OVC020
      TEMPO 0409/0412 3SM -PL BR OVC007
     FM041200 01020G26KT 2SM -SNPL BR OVC006
     FM041600 02015KT 1SM -SN OVC004=



000
FTUS44 KOUN 040319 AAA
TAFPNC
TAF AMD
KPNC 040319Z 0403/0424 02010G19KT 5SM BR SCT020 OVC060
     FM040600 03015G27KT 5SM BR OVC020
      TEMPO 0409/0412 3SM -PL BR OVC007
     FM041200 01020G26KT 2SM -SNPL BR OVC006
     FM041600 02015KT 1SM -SN OVC004=



000
FTUS44 KOUN 040315 AAA
TAFSPS
TAF AMD
KSPS 040315Z 0403/0424 09010KT 5SM BR OVC020
     FM040800 02016G26KT 3SM -RA BR OVC006
     FM041400 02020G28KT 2SM -RA BR OVC006
     FM041700 03017G27KT 2SM -FZRAPL OVC005
     FM042100 03015G25KT 2SM PL OVC004=



000
FTUS44 KOUN 040315 AAA
TAFSPS
TAF AMD
KSPS 040315Z 0403/0424 09010KT 5SM BR OVC020
     FM040800 02016G26KT 3SM -RA BR OVC006
     FM041400 02020G28KT 2SM -RA BR OVC006
     FM041700 03017G27KT 2SM -FZRAPL OVC005
     FM042100 03015G25KT 2SM PL OVC004=



000
FTUS44 KOUN 040310 AAA
TAFLAW
TAF AMD
KLAW 040310Z 0403/0424 04009KT P6SM SCT020 BKN150
      TEMPO 0404/0406 -RA
     FM040600 02016G26KT 5SM BR OVC015
      TEMPO 0406/0410 -RA OVC009
     FM041600 01024G30KT 2SM -FZRAPL BR OVC006
     FM041900 03019G27KT 2SM PL OVC005=



000
FTUS44 KOUN 040308 AAA
TAFHBR
TAF AMD
KHBR 040308Z 0403/0424 04013KT P6SM SCT020 OVC150
     FM040700 02018G28KT 5SM BR OVC015
      TEMPO 0407/0411 -RA OVC010
     FM041200 02020G28KT 2SM -FZRAPL OVC006
     FM041600 03018G27KT 2SM PL OVC005=



000
FTUS44 KOUN 040308 AAA
TAFHBR
TAF AMD
KHBR 040308Z 0403/0424 04013KT P6SM SCT020 OVC150
     FM040700 02018G28KT 5SM BR OVC015
      TEMPO 0407/0411 -RA OVC010
     FM041200 02020G28KT 2SM -FZRAPL OVC006
     FM041600 03018G27KT 2SM PL OVC005=



000
FTUS44 KOUN 040308 AAA
TAFHBR
TAF AMD
KHBR 040308Z 0403/0424 04013KT P6SM SCT020 OVC150
     FM040700 02018G28KT 5SM BR OVC015
      TEMPO 0407/0411 -RA OVC010
     FM041200 02020G28KT 2SM -FZRAPL OVC006
     FM041600 03018G27KT 2SM PL OVC005=



000
FTUS44 KOUN 040308 AAA
TAFHBR
TAF AMD
KHBR 040308Z 0403/0424 04013KT P6SM SCT020 OVC150
     FM040700 02018G28KT 5SM BR OVC015
      TEMPO 0407/0411 -RA OVC010
     FM041200 02020G28KT 2SM -FZRAPL OVC006
     FM041600 03018G27KT 2SM PL OVC005=



000
FTUS44 KOUN 040240 AAB
TAFOUN
TAF AMD
KOUN 040240Z 0403/0424 02010KT P6SM SCT030 BKN150
     FM040700 02015G23KT 5SM BR OVC010
      TEMPO 0407/0411 -RA
     FM041200 01020G28KT 2SM -FZRA BR OVC004
     FM041400 01020G28KT 2SM PL OVC004
     FM042200 01018G27KT 1SM -SN OVC003=



000
FTUS44 KOUN 040240 AAB
TAFOUN
TAF AMD
KOUN 040240Z 0403/0424 02010KT P6SM SCT030 BKN150
     FM040700 02015G23KT 5SM BR OVC010
      TEMPO 0407/0411 -RA
     FM041200 01020G28KT 2SM -FZRA BR OVC004
     FM041400 01020G28KT 2SM PL OVC004
     FM042200 01018G27KT 1SM -SN OVC003=



000
FTUS44 KOUN 040240 AAB
TAFOUN
TAF AMD
KOUN 040240Z 0403/0424 02010KT P6SM SCT030 BKN150
     FM040700 02015G23KT 5SM BR OVC010
      TEMPO 0407/0411 -RA
     FM041200 01020G28KT 2SM -FZRA BR OVC004
     FM041400 01020G28KT 2SM PL OVC004
     FM042200 01018G27KT 1SM -SN OVC003=



000
FTUS44 KOUN 040240 AAB
TAFOUN
TAF AMD
KOUN 040240Z 0403/0424 02010KT P6SM SCT030 BKN150
     FM040700 02015G23KT 5SM BR OVC010
      TEMPO 0407/0411 -RA
     FM041200 01020G28KT 2SM -FZRA BR OVC004
     FM041400 01020G28KT 2SM PL OVC004
     FM042200 01018G27KT 1SM -SN OVC003=



000
FTUS44 KOUN 040236 AAA
TAFOKC
TAF AMD
KOKC 040236Z 0403/0424 02010KT P6SM SCT030 BKN150
     FM040700 02015G23KT 5SM BR OVC010
      TEMPO 0407/0411 -RA
     FM041100 01020G28KT 2SM -FZRA BR OVC004
     FM041400 01020G28KT 2SM PL OVC004
     FM042200 01018G27KT 1SM -SN OVC003=



000
FTUS44 KOUN 040236 AAA
TAFOKC
TAF AMD
KOKC 040236Z 0403/0424 02010KT P6SM SCT030 BKN150
     FM040700 02015G23KT 5SM BR OVC010
      TEMPO 0407/0411 -RA
     FM041100 01020G28KT 2SM -FZRA BR OVC004
     FM041400 01020G28KT 2SM PL OVC004
     FM042200 01018G27KT 1SM -SN OVC003=



000
FTUS44 KOUN 032342
TAFWWR
TAF
KWWR 032342Z 0400/0424 03011G17KT P6SM BKN015 OVC100
      TEMPO 0400/0403 -SHRA
     FM040300 03010KT 4SM BR OVC010
     FM040900 02015G22KT 3SM -SNPL BR OVC008
     FM041200 02015KT 1SM -SN OVC004
     FM041900 02012KT 5SM BR OVC008=



000
FTUS44 KOUN 032342
TAFOUN
TAF
KOUN 032342Z 0400/0424 33006KT P6SM OVC100
     FM040200 02012KT 4SM BR OVC010
     FM040700 02015G23KT 3SM BR OVC005
      TEMPO 0407/0411 1SM -RA BR OVC003
     FM041200 01020G28KT 2SM -FZRA BR OVC004
     FM041500 01020G28KT 2SM PL OVC004
     FM042200 01017G28KT 1SM -SN OVC003=



000
FTUS44 KOUN 032342
TAFGAG
TAF
KGAG 032342Z 0400/0424 03011G17KT P6SM BKN015 OVC100
      TEMPO 0400/0403 -SHRA
     FM040300 03010KT 4SM BR OVC010
     FM040900 02015G22KT 3SM -SNPL BR OVC008
     FM041200 02015KT 1SM -SN OVC004
     FM041900 02012KT 5SM BR OVC008=



000
FTUS44 KOUN 032342
TAFOKC
TAF
KOKC 032342Z 0400/0424 35006KT P6SM OVC100
     FM040200 02012KT 4SM BR OVC010
     FM040700 02015G23KT 3SM BR OVC005
      TEMPO 0407/0411 1SM -RA BR OVC003
     FM041100 01020G28KT 2SM -FZRA BR OVC004
     FM041400 01020G28KT 2SM PL OVC004
     FM042200 01018G27KT 1SM -SN OVC003=



000
FTUS44 KOUN 032342
TAFOKC
TAF
KOKC 032342Z 0400/0424 35006KT P6SM OVC100
     FM040200 02012KT 4SM BR OVC010
     FM040700 02015G23KT 3SM BR OVC005
      TEMPO 0407/0411 1SM -RA BR OVC003
     FM041100 01020G28KT 2SM -FZRA BR OVC004
     FM041400 01020G28KT 2SM PL OVC004
     FM042200 01018G27KT 1SM -SN OVC003=



000
FTUS44 KOUN 032342
TAFPNC
TAF
KPNC 032342Z 0400/0424 36010KT P6SM OVC060
      TEMPO 0400/0403 -SHRA
     FM040300 02017G26KT 4SM BR OVC009
      TEMPO 0406/0410 2SM -PL BR OVC007
     FM041000 01020G26KT 2SM -SNPL BR OVC006
     FM041200 02015KT 1SM -SN OVC004=



000
FTUS44 KOUN 032342
TAFPNC
TAF
KPNC 032342Z 0400/0424 36010KT P6SM OVC060
      TEMPO 0400/0403 -SHRA
     FM040300 02017G26KT 4SM BR OVC009
      TEMPO 0406/0410 2SM -PL BR OVC007
     FM041000 01020G26KT 2SM -SNPL BR OVC006
     FM041200 02015KT 1SM -SN OVC004=



000
FTUS44 KOUN 032342
TAFWWR
TAF
KWWR 032342Z 0400/0424 03011G17KT P6SM BKN015 OVC100
      TEMPO 0400/0403 -SHRA
     FM040300 03010KT 4SM BR OVC010
     FM040900 02015G22KT 3SM -SNPL BR OVC008
     FM041200 02015KT 1SM -SN OVC004
     FM041900 02012KT 5SM BR OVC008=



000
FTUS44 KOUN 032342
TAFGAG
TAF
KGAG 032342Z 0400/0424 03011G17KT P6SM BKN015 OVC100
      TEMPO 0400/0403 -SHRA
     FM040300 03010KT 4SM BR OVC010
     FM040900 02015G22KT 3SM -SNPL BR OVC008
     FM041200 02015KT 1SM -SN OVC004
     FM041900 02012KT 5SM BR OVC008=



000
FTUS44 KOUN 032342
TAFOUN
TAF
KOUN 032342Z 0400/0424 33006KT P6SM OVC100
     FM040200 02012KT 4SM BR OVC010
     FM040700 02015G23KT 3SM BR OVC005
      TEMPO 0407/0411 1SM -RA BR OVC003
     FM041200 01020G28KT 2SM -FZRA BR OVC004
     FM041500 01020G28KT 2SM PL OVC004
     FM042200 01017G28KT 1SM -SN OVC003=



000
FTUS44 KOUN 032342
TAFSPS
TAF
KSPS 032342Z 0400/0424 VRB04KT P6SM BKN030 BKN100
     FM040300 02010KT 4SM -RA BR OVC010
     FM040900 02016G26KT 3SM -RA BR OVC006
     FM041400 02020G28KT 2SM -RA BR OVC006
     FM041700 03017G27KT 2SM -FZRAPL OVC005
     FM042100 03015G25KT 2SM PL OVC004=



000
FTUS44 KOUN 032342
TAFLAW
TAF
KLAW 032342Z 0400/0424 02008KT P6SM FEW020 BKN120
     FM040200 01009KT P6SM OVC010
      TEMPO 0402/0406 4SM -RA BR
     FM040600 02016G26KT 4SM -RA BR OVC007
     FM041600 01024G30KT 2SM -FZRAPL BR OVC006
     FM041900 03019G27KT 2SM PL OVC005=



000
FTUS44 KOUN 032342
TAFHBR
TAF
KHBR 032342Z 0400/0424 01012KT P6SM OVC100
     FM040300 02013G22KT P6SM OVC010
     FM040700 02018G28KT 4SM BR OVC007
      TEMPO 0407/0411 2SM -RA BR OVC004
     FM041200 02020G28KT 2SM -FZRAPL OVC006
     FM041600 03018G27KT 2SM PL OVC005=



000
FTUS44 KOUN 032342
TAFOUN
TAF
KOUN 032342Z 0400/0424 33006KT P6SM OVC100
     FM040200 02012KT 4SM BR OVC010
     FM040700 02015G23KT 3SM BR OVC005
      TEMPO 0407/0411 1SM -RA BR OVC003
     FM041200 01020G28KT 2SM -FZRA BR OVC004
     FM041500 01020G28KT 2SM PL OVC004
     FM042200 01017G28KT 1SM -SN OVC003=



000
FTUS44 KOUN 032342
TAFLAW
TAF
KLAW 032342Z 0400/0424 02008KT P6SM FEW020 BKN120
     FM040200 01009KT P6SM OVC010
      TEMPO 0402/0406 4SM -RA BR
     FM040600 02016G26KT 4SM -RA BR OVC007
     FM041600 01024G30KT 2SM -FZRAPL BR OVC006
     FM041900 03019G27KT 2SM PL OVC005=



000
FTUS44 KOUN 032342
TAFPNC
TAF
KPNC 032342Z 0400/0424 36010KT P6SM OVC060
      TEMPO 0400/0403 -SHRA
     FM040300 02017G26KT 4SM BR OVC009
      TEMPO 0406/0410 2SM -PL BR OVC007
     FM041000 01020G26KT 2SM -SNPL BR OVC006
     FM041200 02015KT 1SM -SN OVC004=



000
FTUS44 KOUN 032342
TAFLAW
TAF
KLAW 032342Z 0400/0424 02008KT P6SM FEW020 BKN120
     FM040200 01009KT P6SM OVC010
      TEMPO 0402/0406 4SM -RA BR
     FM040600 02016G26KT 4SM -RA BR OVC007
     FM041600 01024G30KT 2SM -FZRAPL BR OVC006
     FM041900 03019G27KT 2SM PL OVC005=



000
FTUS44 KOUN 032342
TAFHBR
TAF
KHBR 032342Z 0400/0424 01012KT P6SM OVC100
     FM040300 02013G22KT P6SM OVC010
     FM040700 02018G28KT 4SM BR OVC007
      TEMPO 0407/0411 2SM -RA BR OVC004
     FM041200 02020G28KT 2SM -FZRAPL OVC006
     FM041600 03018G27KT 2SM PL OVC005=



000
FTUS44 KOUN 032342
TAFGAG
TAF
KGAG 032342Z 0400/0424 03011G17KT P6SM BKN015 OVC100
      TEMPO 0400/0403 -SHRA
     FM040300 03010KT 4SM BR OVC010
     FM040900 02015G22KT 3SM -SNPL BR OVC008
     FM041200 02015KT 1SM -SN OVC004
     FM041900 02012KT 5SM BR OVC008=



000
FTUS44 KOUN 032342
TAFSPS
TAF
KSPS 032342Z 0400/0424 VRB04KT P6SM BKN030 BKN100
     FM040300 02010KT 4SM -RA BR OVC010
     FM040900 02016G26KT 3SM -RA BR OVC006
     FM041400 02020G28KT 2SM -RA BR OVC006
     FM041700 03017G27KT 2SM -FZRAPL OVC005
     FM042100 03015G25KT 2SM PL OVC004=



000
FTUS44 KOUN 032342
TAFWWR
TAF
KWWR 032342Z 0400/0424 03011G17KT P6SM BKN015 OVC100
      TEMPO 0400/0403 -SHRA
     FM040300 03010KT 4SM BR OVC010
     FM040900 02015G22KT 3SM -SNPL BR OVC008
     FM041200 02015KT 1SM -SN OVC004
     FM041900 02012KT 5SM BR OVC008=



000
FTUS44 KOUN 032342
TAFOUN
TAF
KOUN 032342Z 0400/0424 33006KT P6SM OVC100
     FM040200 02012KT 4SM BR OVC010
     FM040700 02015G23KT 3SM BR OVC005
      TEMPO 0407/0411 1SM -RA BR OVC003
     FM041200 01020G28KT 2SM -FZRA BR OVC004
     FM041500 01020G28KT 2SM PL OVC004
     FM042200 01017G28KT 1SM -SN OVC003=



000
FTUS44 KOUN 032342
TAFWWR
TAF
KWWR 032342Z 0400/0424 03011G17KT P6SM BKN015 OVC100
      TEMPO 0400/0403 -SHRA
     FM040300 03010KT 4SM BR OVC010
     FM040900 02015G22KT 3SM -SNPL BR OVC008
     FM041200 02015KT 1SM -SN OVC004
     FM041900 02012KT 5SM BR OVC008=



000
FTUS44 KOUN 032342
TAFPNC
TAF
KPNC 032342Z 0400/0424 36010KT P6SM OVC060
      TEMPO 0400/0403 -SHRA
     FM040300 02017G26KT 4SM BR OVC009
      TEMPO 0406/0410 2SM -PL BR OVC007
     FM041000 01020G26KT 2SM -SNPL BR OVC006
     FM041200 02015KT 1SM -SN OVC004=



000
FTUS44 KOUN 032342
TAFHBR
TAF
KHBR 032342Z 0400/0424 01012KT P6SM OVC100
     FM040300 02013G22KT P6SM OVC010
     FM040700 02018G28KT 4SM BR OVC007
      TEMPO 0407/0411 2SM -RA BR OVC004
     FM041200 02020G28KT 2SM -FZRAPL OVC006
     FM041600 03018G27KT 2SM PL OVC005=



000
FTUS44 KOUN 032342
TAFGAG
TAF
KGAG 032342Z 0400/0424 03011G17KT P6SM BKN015 OVC100
      TEMPO 0400/0403 -SHRA
     FM040300 03010KT 4SM BR OVC010
     FM040900 02015G22KT 3SM -SNPL BR OVC008
     FM041200 02015KT 1SM -SN OVC004
     FM041900 02012KT 5SM BR OVC008=



000
FTUS44 KOUN 032342
TAFOKC
TAF
KOKC 032342Z 0400/0424 35006KT P6SM OVC100
     FM040200 02012KT 4SM BR OVC010
     FM040700 02015G23KT 3SM BR OVC005
      TEMPO 0407/0411 1SM -RA BR OVC003
     FM041100 01020G28KT 2SM -FZRA BR OVC004
     FM041400 01020G28KT 2SM PL OVC004
     FM042200 01018G27KT 1SM -SN OVC003=



000
FTUS44 KOUN 032342
TAFHBR
TAF
KHBR 032342Z 0400/0424 01012KT P6SM OVC100
     FM040300 02013G22KT P6SM OVC010
     FM040700 02018G28KT 4SM BR OVC007
      TEMPO 0407/0411 2SM -RA BR OVC004
     FM041200 02020G28KT 2SM -FZRAPL OVC006
     FM041600 03018G27KT 2SM PL OVC005=



000
FTUS44 KOUN 032342
TAFOKC
TAF
KOKC 032342Z 0400/0424 35006KT P6SM OVC100
     FM040200 02012KT 4SM BR OVC010
     FM040700 02015G23KT 3SM BR OVC005
      TEMPO 0407/0411 1SM -RA BR OVC003
     FM041100 01020G28KT 2SM -FZRA BR OVC004
     FM041400 01020G28KT 2SM PL OVC004
     FM042200 01018G27KT 1SM -SN OVC003=



000
FTUS44 KOUN 032342
TAFSPS
TAF
KSPS 032342Z 0400/0424 VRB04KT P6SM BKN030 BKN100
     FM040300 02010KT 4SM -RA BR OVC010
     FM040900 02016G26KT 3SM -RA BR OVC006
     FM041400 02020G28KT 2SM -RA BR OVC006
     FM041700 03017G27KT 2SM -FZRAPL OVC005
     FM042100 03015G25KT 2SM PL OVC004=



000
FTUS44 KOUN 032342
TAFSPS
TAF
KSPS 032342Z 0400/0424 VRB04KT P6SM BKN030 BKN100
     FM040300 02010KT 4SM -RA BR OVC010
     FM040900 02016G26KT 3SM -RA BR OVC006
     FM041400 02020G28KT 2SM -RA BR OVC006
     FM041700 03017G27KT 2SM -FZRAPL OVC005
     FM042100 03015G25KT 2SM PL OVC004=



000
FTUS44 KOUN 032342
TAFLAW
TAF
KLAW 032342Z 0400/0424 02008KT P6SM FEW020 BKN120
     FM040200 01009KT P6SM OVC010
      TEMPO 0402/0406 4SM -RA BR
     FM040600 02016G26KT 4SM -RA BR OVC007
     FM041600 01024G30KT 2SM -FZRAPL BR OVC006
     FM041900 03019G27KT 2SM PL OVC005=



000
FTUS44 KOUN 032130 AAA
TAFPNC
TAF AMD
KPNC 032130Z 0322/0418 VRB06KT P6SM OVC110
     FM040000 36010KT P6SM BKN120
     FM040600 02017G26KT 4SM BR OVC009
      TEMPO 0406/0410 2SM -PL BR OVC007
     FM041000 01020G26KT 2SM -SNPL BR OVC006=



000
FTUS44 KOUN 032127 AAA
TAFSPS
TAF AMD
KSPS 032127Z 0321/0418 20008KT P6SM FEW020 BKN120
     FM032300 22009KT P6SM BKN030 BKN100
     FM040400 02010KT 4SM -RA BR OVC010
     FM040900 02016G26KT 3SM -RA BR OVC006
     FM041400 02020G28KT 2SM -RA BR OVC006=



000
FTUS44 KOUN 032127 AAA
TAFSPS
TAF AMD
KSPS 032127Z 0321/0418 20008KT P6SM FEW020 BKN120
     FM032300 22009KT P6SM BKN030 BKN100
     FM040400 02010KT 4SM -RA BR OVC010
     FM040900 02016G26KT 3SM -RA BR OVC006
     FM041400 02020G28KT 2SM -RA BR OVC006=



000
FTUS44 KOUN 032126 AAA
TAFLAW
TAF AMD
KLAW 032126Z 0321/0418 21008KT P6SM FEW020 BKN120
     FM040200 01009KT P6SM OVC010
      TEMPO 0402/0406 4SM -RA BR
     FM040600 02016G26KT 4SM -RA BR OVC007
     FM041600 01024G30KT 2SM -RAPL BR OVC006=



000
FTUS44 KOUN 031910 AAA
TAFWWR
TAF AMD
KWWR 031910Z 0319/0418 01015G22KT P6SM OVC150
     FM032200 36012KT P6SM BKN015 OVC100
     FM040300 03010KT 4SM BR OVC010 PROB30 0405/0411 2SM -PL BR
      OVC007
     FM041100 02015G22KT 3SM -SNPL BR OVC008=



000
FTUS44 KOUN 031910 AAA
TAFWWR
TAF AMD
KWWR 031910Z 0319/0418 01015G22KT P6SM OVC150
     FM032200 36012KT P6SM BKN015 OVC100
     FM040300 03010KT 4SM BR OVC010 PROB30 0405/0411 2SM -PL BR
      OVC007
     FM041100 02015G22KT 3SM -SNPL BR OVC008=



000
FTUS44 KOUN 031910 AAA
TAFWWR
TAF AMD
KWWR 031910Z 0319/0418 01015G22KT P6SM OVC150
     FM032200 36012KT P6SM BKN015 OVC100
     FM040300 03010KT 4SM BR OVC010 PROB30 0405/0411 2SM -PL BR
      OVC007
     FM041100 02015G22KT 3SM -SNPL BR OVC008=



000
FTUS44 KOUN 031909 AAA
TAFGAG
TAF AMD
KGAG 031909Z 0319/0418 02012G18KT P6SM OVC200
     FM032100 03011G17KT P6SM BKN015 OVC100
     FM040300 03010KT 4SM BR OVC010 PROB30 0405/0411 2SM -PL BR
      OVC007
     FM041100 02015G22KT 3SM -SNPL BR OVC008=



000
FTUS44 KOUN 031909 AAA
TAFGAG
TAF AMD
KGAG 031909Z 0319/0418 02012G18KT P6SM OVC200
     FM032100 03011G17KT P6SM BKN015 OVC100
     FM040300 03010KT 4SM BR OVC010 PROB30 0405/0411 2SM -PL BR
      OVC007
     FM041100 02015G22KT 3SM -SNPL BR OVC008=



000
FTUS44 KOUN 031909 AAA
TAFGAG
TAF AMD
KGAG 031909Z 0319/0418 02012G18KT P6SM OVC200
     FM032100 03011G17KT P6SM BKN015 OVC100
     FM040300 03010KT 4SM BR OVC010 PROB30 0405/0411 2SM -PL BR
      OVC007
     FM041100 02015G22KT 3SM -SNPL BR OVC008=



000
FTUS44 KOUN 031735
TAFOUN
TAF
KOUN 031735Z 0318/0418 22010G20KT P6SM BKN012
     FM031900 21013KT P6SM SCT015
     FM032200 26008KT P6SM OVC100
     FM040200 02012KT 4SM BR OVC010
     FM040700 02015G23KT 3SM BR OVC005
      TEMPO 0407/0411 1SM -RA BR OVC003
     FM041100 01020G28KT 2SM -RA BR OVC004
     FM041500 01020G28KT 2SM PL OVC004=



000
FTUS44 KOUN 031735
TAFHBR
TAF
KHBR 031735Z 0318/0418 23010G16KT P6SM OVC120
     FM040000 01012KT P6SM BKN009 OVC100 PROB30 0403/0407 3SM -RA BR
      OVC007
     FM040700 02018G28KT 4SM BR OVC007
      TEMPO 0407/0411 2SM -RA BR OVC004
     FM041100 02020G28KT 2SM -RAPL OVC006=



000
FTUS44 KOUN 031735
TAFSPS
TAF
KSPS 031735Z 0318/0418 20013G23KT 6SM BR BKN006
      TEMPO 0319/0323 SCT008 SCT020
     FM032300 22009KT P6SM BKN030 BKN100
     FM040400 02010KT 4SM -RA BR OVC010
     FM040900 02016G26KT 3SM -RA BR OVC006
     FM041400 02020G28KT 2SM -RA BR OVC006=



000
FTUS44 KOUN 031735
TAFGAG
TAF
KGAG 031735Z 0318/0418 24010G15KT P6SM OVC150
     FM032200 36012KT P6SM BKN030 OVC100
     FM040300 03010KT 4SM BR OVC010 PROB30 0405/0411 2SM -PL BR
      OVC007
     FM041100 02015G22KT 3SM -SNPL BR OVC008=



000
FTUS44 KOUN 031735
TAFWWR
TAF
KWWR 031735Z 0318/0418 24010G15KT P6SM OVC150
     FM032200 36012KT P6SM BKN030 OVC100
     FM040300 03010KT 4SM BR OVC010 PROB30 0405/0411 2SM -PL BR
      OVC007
     FM041100 02015G22KT 3SM -SNPL BR OVC008=



000
FTUS44 KOUN 031735
TAFPNC
TAF
KPNC 031735Z 0318/0418 20012G16KT P6SM SCT110 OVC200
     FM040000 36010KT 5SM BR OVC010
     FM040600 02017G26KT 4SM BR OVC009
      TEMPO 0406/0410 2SM -PL BR OVC007
     FM041000 01020G26KT 2SM -SNPL BR OVC006=



000
FTUS44 KOUN 031735
TAFLAW
TAF
KLAW 031735Z 0318/0418 21010G15KT P6SM BKN006 BKN100
     FM040200 01009KT P6SM OVC010
      TEMPO 0402/0406 4SM -RA BR
     FM040600 02016G26KT 4SM -RA BR OVC007
     FM041600 01024G30KT 2SM -RAPL BR OVC006=



000
FTUS44 KOUN 031735
TAFOKC
TAF
KOKC 031735Z 0318/0418 22010G20KT P6SM BKN012
     FM031900 21013KT P6SM SCT015
     FM032200 26008KT P6SM OVC100
     FM040200 02012KT 4SM BR OVC010
     FM040700 02015G23KT 3SM BR OVC005
      TEMPO 0407/0411 1SM -RA BR OVC003
     FM041100 01020G28KT 2SM -RA BR OVC004
     FM041400 01020G28KT 2SM PL OVC004=



000
FTUS44 KOUN 031735
TAFOKC
TAF
KOKC 031735Z 0318/0418 22010G20KT P6SM BKN012
     FM031900 21013KT P6SM SCT015
     FM032200 26008KT P6SM OVC100
     FM040200 02012KT 4SM BR OVC010
     FM040700 02015G23KT 3SM BR OVC005
      TEMPO 0407/0411 1SM -RA BR OVC003
     FM041100 01020G28KT 2SM -RA BR OVC004
     FM041400 01020G28KT 2SM PL OVC004=



000
FTUS44 KOUN 031735
TAFPNC
TAF
KPNC 031735Z 0318/0418 20012G16KT P6SM SCT110 OVC200
     FM040000 36010KT 5SM BR OVC010
     FM040600 02017G26KT 4SM BR OVC009
      TEMPO 0406/0410 2SM -PL BR OVC007
     FM041000 01020G26KT 2SM -SNPL BR OVC006=



000
FTUS44 KOUN 031735
TAFWWR
TAF
KWWR 031735Z 0318/0418 24010G15KT P6SM OVC150
     FM032200 36012KT P6SM BKN030 OVC100
     FM040300 03010KT 4SM BR OVC010 PROB30 0405/0411 2SM -PL BR
      OVC007
     FM041100 02015G22KT 3SM -SNPL BR OVC008=



000
FTUS44 KOUN 031735
TAFGAG
TAF
KGAG 031735Z 0318/0418 24010G15KT P6SM OVC150
     FM032200 36012KT P6SM BKN030 OVC100
     FM040300 03010KT 4SM BR OVC010 PROB30 0405/0411 2SM -PL BR
      OVC007
     FM041100 02015G22KT 3SM -SNPL BR OVC008=



000
FTUS44 KOUN 031735
TAFHBR
TAF
KHBR 031735Z 0318/0418 23010G16KT P6SM OVC120
     FM040000 01012KT P6SM BKN009 OVC100 PROB30 0403/0407 3SM -RA BR
      OVC007
     FM040700 02018G28KT 4SM BR OVC007
      TEMPO 0407/0411 2SM -RA BR OVC004
     FM041100 02020G28KT 2SM -RAPL OVC006=



000
FTUS44 KOUN 031735
TAFLAW
TAF
KLAW 031735Z 0318/0418 21010G15KT P6SM BKN006 BKN100
     FM040200 01009KT P6SM OVC010
      TEMPO 0402/0406 4SM -RA BR
     FM040600 02016G26KT 4SM -RA BR OVC007
     FM041600 01024G30KT 2SM -RAPL BR OVC006=



000
FTUS44 KOUN 031735
TAFSPS
TAF
KSPS 031735Z 0318/0418 20013G23KT 6SM BR BKN006
      TEMPO 0319/0323 SCT008 SCT020
     FM032300 22009KT P6SM BKN030 BKN100
     FM040400 02010KT 4SM -RA BR OVC010
     FM040900 02016G26KT 3SM -RA BR OVC006
     FM041400 02020G28KT 2SM -RA BR OVC006=



000
FTUS44 KOUN 031735
TAFOKC
TAF
KOKC 031735Z 0318/0418 22010G20KT P6SM BKN012
     FM031900 21013KT P6SM SCT015
     FM032200 26008KT P6SM OVC100
     FM040200 02012KT 4SM BR OVC010
     FM040700 02015G23KT 3SM BR OVC005
      TEMPO 0407/0411 1SM -RA BR OVC003
     FM041100 01020G28KT 2SM -RA BR OVC004
     FM041400 01020G28KT 2SM PL OVC004=



000
FTUS44 KOUN 031735
TAFHBR
TAF
KHBR 031735Z 0318/0418 23010G16KT P6SM OVC120
     FM040000 01012KT P6SM BKN009 OVC100 PROB30 0403/0407 3SM -RA BR
      OVC007
     FM040700 02018G28KT 4SM BR OVC007
      TEMPO 0407/0411 2SM -RA BR OVC004
     FM041100 02020G28KT 2SM -RAPL OVC006=



000
FTUS44 KOUN 031735
TAFWWR
TAF
KWWR 031735Z 0318/0418 24010G15KT P6SM OVC150
     FM032200 36012KT P6SM BKN030 OVC100
     FM040300 03010KT 4SM BR OVC010 PROB30 0405/0411 2SM -PL BR
      OVC007
     FM041100 02015G22KT 3SM -SNPL BR OVC008=



000
FTUS44 KOUN 031735
TAFLAW
TAF
KLAW 031735Z 0318/0418 21010G15KT P6SM BKN006 BKN100
     FM040200 01009KT P6SM OVC010
      TEMPO 0402/0406 4SM -RA BR
     FM040600 02016G26KT 4SM -RA BR OVC007
     FM041600 01024G30KT 2SM -RAPL BR OVC006=



000
FTUS44 KOUN 031735
TAFPNC
TAF
KPNC 031735Z 0318/0418 20012G16KT P6SM SCT110 OVC200
     FM040000 36010KT 5SM BR OVC010
     FM040600 02017G26KT 4SM BR OVC009
      TEMPO 0406/0410 2SM -PL BR OVC007
     FM041000 01020G26KT 2SM -SNPL BR OVC006=



000
FTUS44 KOUN 031735
TAFOUN
TAF
KOUN 031735Z 0318/0418 22010G20KT P6SM BKN012
     FM031900 21013KT P6SM SCT015
     FM032200 26008KT P6SM OVC100
     FM040200 02012KT 4SM BR OVC010
     FM040700 02015G23KT 3SM BR OVC005
      TEMPO 0407/0411 1SM -RA BR OVC003
     FM041100 01020G28KT 2SM -RA BR OVC004
     FM041500 01020G28KT 2SM PL OVC004=



000
FTUS44 KOUN 031735
TAFSPS
TAF
KSPS 031735Z 0318/0418 20013G23KT 6SM BR BKN006
      TEMPO 0319/0323 SCT008 SCT020
     FM032300 22009KT P6SM BKN030 BKN100
     FM040400 02010KT 4SM -RA BR OVC010
     FM040900 02016G26KT 3SM -RA BR OVC006
     FM041400 02020G28KT 2SM -RA BR OVC006=



000
FTUS44 KOUN 031735
TAFOUN
TAF
KOUN 031735Z 0318/0418 22010G20KT P6SM BKN012
     FM031900 21013KT P6SM SCT015
     FM032200 26008KT P6SM OVC100
     FM040200 02012KT 4SM BR OVC010
     FM040700 02015G23KT 3SM BR OVC005
      TEMPO 0407/0411 1SM -RA BR OVC003
     FM041100 01020G28KT 2SM -RA BR OVC004
     FM041500 01020G28KT 2SM PL OVC004=



000
FTUS44 KOUN 031735
TAFGAG
TAF
KGAG 031735Z 0318/0418 24010G15KT P6SM OVC150
     FM032200 36012KT P6SM BKN030 OVC100
     FM040300 03010KT 4SM BR OVC010 PROB30 0405/0411 2SM -PL BR
      OVC007
     FM041100 02015G22KT 3SM -SNPL BR OVC008=



000
FTUS44 KOUN 031735
TAFPNC
TAF
KPNC 031735Z 0318/0418 20012G16KT P6SM SCT110 OVC200
     FM040000 36010KT 5SM BR OVC010
     FM040600 02017G26KT 4SM BR OVC009
      TEMPO 0406/0410 2SM -PL BR OVC007
     FM041000 01020G26KT 2SM -SNPL BR OVC006=



000
FTUS44 KOUN 031735
TAFGAG
TAF
KGAG 031735Z 0318/0418 24010G15KT P6SM OVC150
     FM032200 36012KT P6SM BKN030 OVC100
     FM040300 03010KT 4SM BR OVC010 PROB30 0405/0411 2SM -PL BR
      OVC007
     FM041100 02015G22KT 3SM -SNPL BR OVC008=



000
FTUS44 KOUN 031735
TAFOUN
TAF
KOUN 031735Z 0318/0418 22010G20KT P6SM BKN012
     FM031900 21013KT P6SM SCT015
     FM032200 26008KT P6SM OVC100
     FM040200 02012KT 4SM BR OVC010
     FM040700 02015G23KT 3SM BR OVC005
      TEMPO 0407/0411 1SM -RA BR OVC003
     FM041100 01020G28KT 2SM -RA BR OVC004
     FM041500 01020G28KT 2SM PL OVC004=



000
FTUS44 KOUN 031735
TAFSPS
TAF
KSPS 031735Z 0318/0418 20013G23KT 6SM BR BKN006
      TEMPO 0319/0323 SCT008 SCT020
     FM032300 22009KT P6SM BKN030 BKN100
     FM040400 02010KT 4SM -RA BR OVC010
     FM040900 02016G26KT 3SM -RA BR OVC006
     FM041400 02020G28KT 2SM -RA BR OVC006=



000
FTUS44 KOUN 031735
TAFHBR
TAF
KHBR 031735Z 0318/0418 23010G16KT P6SM OVC120
     FM040000 01012KT P6SM BKN009 OVC100 PROB30 0403/0407 3SM -RA BR
      OVC007
     FM040700 02018G28KT 4SM BR OVC007
      TEMPO 0407/0411 2SM -RA BR OVC004
     FM041100 02020G28KT 2SM -RAPL OVC006=



000
FTUS44 KOUN 031735
TAFOKC
TAF
KOKC 031735Z 0318/0418 22010G20KT P6SM BKN012
     FM031900 21013KT P6SM SCT015
     FM032200 26008KT P6SM OVC100
     FM040200 02012KT 4SM BR OVC010
     FM040700 02015G23KT 3SM BR OVC005
      TEMPO 0407/0411 1SM -RA BR OVC003
     FM041100 01020G28KT 2SM -RA BR OVC004
     FM041400 01020G28KT 2SM PL OVC004=



000
FTUS44 KOUN 031735
TAFLAW
TAF
KLAW 031735Z 0318/0418 21010G15KT P6SM BKN006 BKN100
     FM040200 01009KT P6SM OVC010
      TEMPO 0402/0406 4SM -RA BR
     FM040600 02016G26KT 4SM -RA BR OVC007
     FM041600 01024G30KT 2SM -RAPL BR OVC006=



000
FTUS44 KOUN 031735
TAFWWR
TAF
KWWR 031735Z 0318/0418 24010G15KT P6SM OVC150
     FM032200 36012KT P6SM BKN030 OVC100
     FM040300 03010KT 4SM BR OVC010 PROB30 0405/0411 2SM -PL BR
      OVC007
     FM041100 02015G22KT 3SM -SNPL BR OVC008=



000
FTUS44 KOUN 031701 AAA
TAFHBR
TAF AMD
KHBR 031701Z 0317/0412 24014KT P6SM OVC100
     FM040100 01012KT 5SM BR BKN009 OVC100 PROB30 0403/0407 3SM
      -RAPL BR OVC007
     FM040700 03017G27KT 4SM -SN BR OVC007
      TEMPO 0407/0411 2SM -SNPL BR OVC004=



000
FTUS44 KOUN 031658 AAB
TAFOUN
TAF AMD
KOUN 031658Z 0317/0412 22010G20KT P6SM SCT008 BKN015
     FM031900 21013KT P6SM SCT015
     FM032200 26008KT P6SM OVC100
     FM040200 02012KT 4SM BR OVC010 PROB30 0402/0406 2SM -RA BR
     FM040700 02015G23KT 3SM BR OVC005
      TEMPO 0407/0411 1SM -RAPLSN BR OVC003=



000
FTUS44 KOUN 031657 AAA
TAFOKC
TAF AMD
KOKC 031657Z 0317/0412 22010G20KT P6SM BKN012
     FM031900 21013KT P6SM SCT015
     FM032200 26008KT P6SM OVC100
     FM040200 02012KT 4SM BR OVC010 PROB30 0402/0406 2SM -RA BR
     FM040700 02015G23KT 3SM BR OVC005
      TEMPO 0407/0411 1SM -FZRAPLSN BR OVC003=



000
FTUS44 KOUN 031130
TAFLAW
TAF
KLAW 031130Z 0312/0412 19012KT 4SM BR BKN007 OVC020
      TEMPO 0312/0315 2SM -DZ BR OVC007
     FM031600 21014G24KT P6SM BKN010 BKN100
     FM040200 01009KT P6SM OVC010
      TEMPO 0402/0406 4SM -RA BR
     FM040600 02016G26KT 4SM -FZRAPLSN BR OVC007
      TEMPO 0406/0409 2SM -RAPL BR=



000
FTUS44 KOUN 031130
TAFGAG
TAF
KGAG 031130Z 0312/0412 22018G27KT P6SM SCT020 BKN150
     FM032200 36012KT P6SM BKN030 OVC100
     FM040300 03010KT 4SM BR OVC010 PROB30 0405/0411 2SM -SN BR
      OVC007=



000
FTUS44 KOUN 031130
TAFSPS
TAF
KSPS 031130Z 0312/0412 20013G23KT 6SM BR BKN009 OVC015
     FM032300 22009KT P6SM BKN030 BKN100
     FM040400 02010KT 4SM -RA BR OVC010
     FM040900 02016G26KT 4SM -RAPL BR OVC007
      TEMPO 0409/0412 2SM -FZRAPL BR OVC004=



000
FTUS44 KOUN 031130
TAFWWR
TAF
KWWR 031130Z 0312/0412 22018G27KT P6SM SCT020 BKN150
     FM032200 36012KT P6SM BKN030 OVC100
     FM040300 03010KT 4SM BR OVC010 PROB30 0405/0411 2SM -SN BR
      OVC007=



000
FTUS44 KOUN 031130
TAFWWR
TAF
KWWR 031130Z 0312/0412 22018G27KT P6SM SCT020 BKN150
     FM032200 36012KT P6SM BKN030 OVC100
     FM040300 03010KT 4SM BR OVC010 PROB30 0405/0411 2SM -SN BR
      OVC007=



000
FTUS44 KOUN 031130
TAFOUN
TAF
KOUN 031130Z 0312/0412 19016G27KT 2SM BR OVC003
      TEMPO 0312/0315 1SM -DZ BR
     FM031800 21013KT P6SM SCT003 OVC015
     FM032200 26008KT P6SM OVC030
     FM040200 02012KT 4SM BR OVC010 PROB30 0402/0406 2SM -RA BR
     FM040700 02015G23KT 3SM BR OVC005
      TEMPO 0407/0411 1SM -RAPLSN BR OVC003=



000
FTUS44 KOUN 031130
TAFOUN
TAF
KOUN 031130Z 0312/0412 19016G27KT 2SM BR OVC003
      TEMPO 0312/0315 1SM -DZ BR
     FM031800 21013KT P6SM SCT003 OVC015
     FM032200 26008KT P6SM OVC030
     FM040200 02012KT 4SM BR OVC010 PROB30 0402/0406 2SM -RA BR
     FM040700 02015G23KT 3SM BR OVC005
      TEMPO 0407/0411 1SM -RAPLSN BR OVC003=



000
FTUS44 KOUN 031130
TAFHBR
TAF
KHBR 031130Z 0312/0412 20017G27KT 5SM BR OVC007
     FM031900 24014KT P6SM BKN015 OVC100
     FM040100 01012KT 5SM BR BKN009 OVC100 PROB30 0403/0407 3SM
      -RAPL BR OVC007
     FM040700 03017G27KT 4SM -SN BR OVC007
      TEMPO 0407/0411 2SM -SNPL BR OVC004=



000
FTUS44 KOUN 031130
TAFOKC
TAF
KOKC 031130Z 0312/0412 19017G27KT 4SM BR OVC003
     FM031900 21013KT P6SM SCT003 OVC015
     FM032200 26008KT P6SM OVC030
     FM040200 02012KT 4SM BR OVC010 PROB30 0402/0406 2SM -RA BR
     FM040700 02015G23KT 3SM BR OVC005
      TEMPO 0407/0411 1SM -FZRAPLSN BR OVC003=



000
FTUS44 KOUN 031130
TAFSPS
TAF
KSPS 031130Z 0312/0412 20013G23KT 6SM BR BKN009 OVC015
     FM032300 22009KT P6SM BKN030 BKN100
     FM040400 02010KT 4SM -RA BR OVC010
     FM040900 02016G26KT 4SM -RAPL BR OVC007
      TEMPO 0409/0412 2SM -FZRAPL BR OVC004=



000
FTUS44 KOUN 031130
TAFGAG
TAF
KGAG 031130Z 0312/0412 22018G27KT P6SM SCT020 BKN150
     FM032200 36012KT P6SM BKN030 OVC100
     FM040300 03010KT 4SM BR OVC010 PROB30 0405/0411 2SM -SN BR
      OVC007=



000
FTUS44 KOUN 031130
TAFPNC
TAF
KPNC 031130Z 0312/0412 20012G23KT 5SM BR OVC007
     FM032000 26010KT P6SM OVC015
     FM040000 36010KT 5SM BR OVC010 PROB30 0401/0406 4SM -RAPL BR
      OVC009
     FM040600 02017G26KT 4SM BR OVC009
      TEMPO 0406/0410 2SM -SN BR OVC007=



000
FTUS44 KOUN 031130
TAFLAW
TAF
KLAW 031130Z 0312/0412 19012KT 4SM BR BKN007 OVC020
      TEMPO 0312/0315 2SM -DZ BR OVC007
     FM031600 21014G24KT P6SM BKN010 BKN100
     FM040200 01009KT P6SM OVC010
      TEMPO 0402/0406 4SM -RA BR
     FM040600 02016G26KT 4SM -FZRAPLSN BR OVC007
      TEMPO 0406/0409 2SM -RAPL BR=



000
FTUS44 KOUN 031130
TAFPNC
TAF
KPNC 031130Z 0312/0412 20012G23KT 5SM BR OVC007
     FM032000 26010KT P6SM OVC015
     FM040000 36010KT 5SM BR OVC010 PROB30 0401/0406 4SM -RAPL BR
      OVC009
     FM040600 02017G26KT 4SM BR OVC009
      TEMPO 0406/0410 2SM -SN BR OVC007=



000
FTUS44 KOUN 031130
TAFOKC
TAF
KOKC 031130Z 0312/0412 19017G27KT 4SM BR OVC003
     FM031900 21013KT P6SM SCT003 OVC015
     FM032200 26008KT P6SM OVC030
     FM040200 02012KT 4SM BR OVC010 PROB30 0402/0406 2SM -RA BR
     FM040700 02015G23KT 3SM BR OVC005
      TEMPO 0407/0411 1SM -FZRAPLSN BR OVC003=



000
FTUS44 KOUN 031130
TAFSPS
TAF
KSPS 031130Z 0312/0412 20013G23KT 6SM BR BKN009 OVC015
     FM032300 22009KT P6SM BKN030 BKN100
     FM040400 02010KT 4SM -RA BR OVC010
     FM040900 02016G26KT 4SM -RAPL BR OVC007
      TEMPO 0409/0412 2SM -FZRAPL BR OVC004=



000
FTUS44 KOUN 031130
TAFGAG
TAF
KGAG 031130Z 0312/0412 22018G27KT P6SM SCT020 BKN150
     FM032200 36012KT P6SM BKN030 OVC100
     FM040300 03010KT 4SM BR OVC010 PROB30 0405/0411 2SM -SN BR
      OVC007=



000
FTUS44 KOUN 031130
TAFHBR
TAF
KHBR 031130Z 0312/0412 20017G27KT 5SM BR OVC007
     FM031900 24014KT P6SM BKN015 OVC100
     FM040100 01012KT 5SM BR BKN009 OVC100 PROB30 0403/0407 3SM
      -RAPL BR OVC007
     FM040700 03017G27KT 4SM -SN BR OVC007
      TEMPO 0407/0411 2SM -SNPL BR OVC004=



000
FTUS44 KOUN 031130
TAFLAW
TAF
KLAW 031130Z 0312/0412 19012KT 4SM BR BKN007 OVC020
      TEMPO 0312/0315 2SM -DZ BR OVC007
     FM031600 21014G24KT P6SM BKN010 BKN100
     FM040200 01009KT P6SM OVC010
      TEMPO 0402/0406 4SM -RA BR
     FM040600 02016G26KT 4SM -FZRAPLSN BR OVC007
      TEMPO 0406/0409 2SM -RAPL BR=



000
FTUS44 KOUN 031130
TAFPNC
TAF
KPNC 031130Z 0312/0412 20012G23KT 5SM BR OVC007
     FM032000 26010KT P6SM OVC015
     FM040000 36010KT 5SM BR OVC010 PROB30 0401/0406 4SM -RAPL BR
      OVC009
     FM040600 02017G26KT 4SM BR OVC009
      TEMPO 0406/0410 2SM -SN BR OVC007=



000
FTUS44 KOUN 031130
TAFOUN
TAF
KOUN 031130Z 0312/0412 19016G27KT 2SM BR OVC003
      TEMPO 0312/0315 1SM -DZ BR
     FM031800 21013KT P6SM SCT003 OVC015
     FM032200 26008KT P6SM OVC030
     FM040200 02012KT 4SM BR OVC010 PROB30 0402/0406 2SM -RA BR
     FM040700 02015G23KT 3SM BR OVC005
      TEMPO 0407/0411 1SM -RAPLSN BR OVC003=



000
FTUS44 KOUN 031130
TAFHBR
TAF
KHBR 031130Z 0312/0412 20017G27KT 5SM BR OVC007
     FM031900 24014KT P6SM BKN015 OVC100
     FM040100 01012KT 5SM BR BKN009 OVC100 PROB30 0403/0407 3SM
      -RAPL BR OVC007
     FM040700 03017G27KT 4SM -SN BR OVC007
      TEMPO 0407/0411 2SM -SNPL BR OVC004=



000
FTUS44 KOUN 031130
TAFSPS
TAF
KSPS 031130Z 0312/0412 20013G23KT 6SM BR BKN009 OVC015
     FM032300 22009KT P6SM BKN030 BKN100
     FM040400 02010KT 4SM -RA BR OVC010
     FM040900 02016G26KT 4SM -RAPL BR OVC007
      TEMPO 0409/0412 2SM -FZRAPL BR OVC004=



000
FTUS44 KOUN 031130
TAFOKC
TAF
KOKC 031130Z 0312/0412 19017G27KT 4SM BR OVC003
     FM031900 21013KT P6SM SCT003 OVC015
     FM032200 26008KT P6SM OVC030
     FM040200 02012KT 4SM BR OVC010 PROB30 0402/0406 2SM -RA BR
     FM040700 02015G23KT 3SM BR OVC005
      TEMPO 0407/0411 1SM -FZRAPLSN BR OVC003=



000
FTUS44 KOUN 031130
TAFWWR
TAF
KWWR 031130Z 0312/0412 22018G27KT P6SM SCT020 BKN150
     FM032200 36012KT P6SM BKN030 OVC100
     FM040300 03010KT 4SM BR OVC010 PROB30 0405/0411 2SM -SN BR
      OVC007=



000
FTUS44 KOUN 031130
TAFGAG
TAF
KGAG 031130Z 0312/0412 22018G27KT P6SM SCT020 BKN150
     FM032200 36012KT P6SM BKN030 OVC100
     FM040300 03010KT 4SM BR OVC010 PROB30 0405/0411 2SM -SN BR
      OVC007=



000
FTUS44 KOUN 031130
TAFOKC
TAF
KOKC 031130Z 0312/0412 19017G27KT 4SM BR OVC003
     FM031900 21013KT P6SM SCT003 OVC015
     FM032200 26008KT P6SM OVC030
     FM040200 02012KT 4SM BR OVC010 PROB30 0402/0406 2SM -RA BR
     FM040700 02015G23KT 3SM BR OVC005
      TEMPO 0407/0411 1SM -FZRAPLSN BR OVC003=



000
FTUS44 KOUN 031130
TAFLAW
TAF
KLAW 031130Z 0312/0412 19012KT 4SM BR BKN007 OVC020
      TEMPO 0312/0315 2SM -DZ BR OVC007
     FM031600 21014G24KT P6SM BKN010 BKN100
     FM040200 01009KT P6SM OVC010
      TEMPO 0402/0406 4SM -RA BR
     FM040600 02016G26KT 4SM -FZRAPLSN BR OVC007
      TEMPO 0406/0409 2SM -RAPL BR=



000
FTUS44 KOUN 031130
TAFPNC
TAF
KPNC 031130Z 0312/0412 20012G23KT 5SM BR OVC007
     FM032000 26010KT P6SM OVC015
     FM040000 36010KT 5SM BR OVC010 PROB30 0401/0406 4SM -RAPL BR
      OVC009
     FM040600 02017G26KT 4SM BR OVC009
      TEMPO 0406/0410 2SM -SN BR OVC007=



000
FTUS44 KOUN 031130
TAFHBR
TAF
KHBR 031130Z 0312/0412 20017G27KT 5SM BR OVC007
     FM031900 24014KT P6SM BKN015 OVC100
     FM040100 01012KT 5SM BR BKN009 OVC100 PROB30 0403/0407 3SM
      -RAPL BR OVC007
     FM040700 03017G27KT 4SM -SN BR OVC007
      TEMPO 0407/0411 2SM -SNPL BR OVC004=



000
FTUS44 KOUN 031130
TAFOUN
TAF
KOUN 031130Z 0312/0412 19016G27KT 2SM BR OVC003
      TEMPO 0312/0315 1SM -DZ BR
     FM031800 21013KT P6SM SCT003 OVC015
     FM032200 26008KT P6SM OVC030
     FM040200 02012KT 4SM BR OVC010 PROB30 0402/0406 2SM -RA BR
     FM040700 02015G23KT 3SM BR OVC005
      TEMPO 0407/0411 1SM -RAPLSN BR OVC003=



000
FTUS44 KOUN 031130
TAFWWR
TAF
KWWR 031130Z 0312/0412 22018G27KT P6SM SCT020 BKN150
     FM032200 36012KT P6SM BKN030 OVC100
     FM040300 03010KT 4SM BR OVC010 PROB30 0405/0411 2SM -SN BR
      OVC007=



000
FTUS44 KOUN 030532
TAFLAW
TAF
KLAW 030532Z 0306/0406 18012KT 4SM BR OVC005
      TEMPO 0306/0310 2SM -DZ
     FM031600 20012KT P6SM SCT010 BKN100
     FM040100 02009KT P6SM OVC020=



000
FTUS44 KOUN 030532
TAFPNC
TAF
KPNC 030532Z 0306/0406 17010G18KT 2SM BR OVC004
      TEMPO 0306/0310 1SM -DZ
     FM031300 20010KT 4SM BR OVC010
     FM032100 26010KT P6SM SCT020 BKN100
     FM032300 36010KT 5SM BR OVC015=



000
FTUS44 KOUN 030532
TAFPNC
TAF
KPNC 030532Z 0306/0406 17010G18KT 2SM BR OVC004
      TEMPO 0306/0310 1SM -DZ
     FM031300 20010KT 4SM BR OVC010
     FM032100 26010KT P6SM SCT020 BKN100
     FM032300 36010KT 5SM BR OVC015=



000
FTUS44 KOUN 030532
TAFWWR
TAF
KWWR 030532Z 0306/0406 18016G26KT P6SM OVC006
     FM031600 21015G25KT P6SM SCT020 BKN150
     FM032200 03012G20KT P6SM SCT015 BKN100
     FM040300 05009KT 2SM BR OVC010=



000
FTUS44 KOUN 030532
TAFWWR
TAF
KWWR 030532Z 0306/0406 18016G26KT P6SM OVC006
     FM031600 21015G25KT P6SM SCT020 BKN150
     FM032200 03012G20KT P6SM SCT015 BKN100
     FM040300 05009KT 2SM BR OVC010=



000
FTUS44 KOUN 030532
TAFLAW
TAF
KLAW 030532Z 0306/0406 18012KT 4SM BR OVC005
      TEMPO 0306/0310 2SM -DZ
     FM031600 20012KT P6SM SCT010 BKN100
     FM040100 02009KT P6SM OVC020=



000
FTUS44 KOUN 030532
TAFHBR
TAF
KHBR 030532Z 0306/0406 18014G21KT 3SM BR OVC005
     FM031600 22015G25KT P6SM SCT015 BKN100
     FM032300 04012KT 5SM BR BKN009 OVC100=



000
FTUS44 KOUN 030532
TAFGAG
TAF
KGAG 030532Z 0306/0406 18016G26KT P6SM OVC006
     FM031600 21015G25KT P6SM SCT020 BKN150
     FM032200 03012G20KT P6SM SCT015 BKN100
     FM040300 05009KT 2SM BR OVC010=



000
FTUS44 KOUN 030532
TAFOKC
TAF
KOKC 030532Z 0306/0406 17012KT 2SM BR OVC003
      TEMPO 0306/0310 -DZ
     FM031400 20014G25KT P6SM SCT005 OVC015
     FM032000 24008KT P6SM SCT050 BKN100
     FM040100 02012KT 4SM BR OVC010=



000
FTUS44 KOUN 030532
TAFSPS
TAF
KSPS 030532Z 0306/0406 18009KT 2SM BR OVC004
     FM031600 20010KT 5SM BR SCT008 BKN100
     FM032100 22009KT P6SM BKN100
     FM040400 05008KT P6SM SCT005 OVC100=



000
FTUS44 KOUN 030532
TAFOKC
TAF
KOKC 030532Z 0306/0406 17012KT 2SM BR OVC003
      TEMPO 0306/0310 -DZ
     FM031400 20014G25KT P6SM SCT005 OVC015
     FM032000 24008KT P6SM SCT050 BKN100
     FM040100 02012KT 4SM BR OVC010=



000
FTUS44 KOUN 030532
TAFOUN
TAF
KOUN 030532Z 0306/0406 17012KT 2SM BR OVC003
      TEMPO 0306/0310 -DZ
     FM031400 20014G25KT P6SM SCT005 OVC015
     FM032000 24008KT P6SM SCT050 BKN100
     FM040100 02012KT 4SM BR OVC010=



000
FTUS44 KOUN 030532
TAFOUN
TAF
KOUN 030532Z 0306/0406 17012KT 2SM BR OVC003
      TEMPO 0306/0310 -DZ
     FM031400 20014G25KT P6SM SCT005 OVC015
     FM032000 24008KT P6SM SCT050 BKN100
     FM040100 02012KT 4SM BR OVC010=



000
FTUS44 KOUN 030532
TAFGAG
TAF
KGAG 030532Z 0306/0406 18016G26KT P6SM OVC006
     FM031600 21015G25KT P6SM SCT020 BKN150
     FM032200 03012G20KT P6SM SCT015 BKN100
     FM040300 05009KT 2SM BR OVC010=



000
FTUS44 KOUN 030532
TAFHBR
TAF
KHBR 030532Z 0306/0406 18014G21KT 3SM BR OVC005
     FM031600 22015G25KT P6SM SCT015 BKN100
     FM032300 04012KT 5SM BR BKN009 OVC100=



000
FTUS44 KOUN 030532
TAFPNC
TAF
KPNC 030532Z 0306/0406 17010G18KT 2SM BR OVC004
      TEMPO 0306/0310 1SM -DZ
     FM031300 20010KT 4SM BR OVC010
     FM032100 26010KT P6SM SCT020 BKN100
     FM032300 36010KT 5SM BR OVC015=



000
FTUS44 KOUN 030532
TAFLAW
TAF
KLAW 030532Z 0306/0406 18012KT 4SM BR OVC005
      TEMPO 0306/0310 2SM -DZ
     FM031600 20012KT P6SM SCT010 BKN100
     FM040100 02009KT P6SM OVC020=



000
FTUS44 KOUN 030532
TAFSPS
TAF
KSPS 030532Z 0306/0406 18009KT 2SM BR OVC004
     FM031600 20010KT 5SM BR SCT008 BKN100
     FM032100 22009KT P6SM BKN100
     FM040400 05008KT P6SM SCT005 OVC100=



000
FTUS44 KOUN 030532
TAFLAW
TAF
KLAW 030532Z 0306/0406 18012KT 4SM BR OVC005
      TEMPO 0306/0310 2SM -DZ
     FM031600 20012KT P6SM SCT010 BKN100
     FM040100 02009KT P6SM OVC020=



000
FTUS44 KOUN 030532
TAFGAG
TAF
KGAG 030532Z 0306/0406 18016G26KT P6SM OVC006
     FM031600 21015G25KT P6SM SCT020 BKN150
     FM032200 03012G20KT P6SM SCT015 BKN100
     FM040300 05009KT 2SM BR OVC010=



000
FTUS44 KOUN 030532
TAFOKC
TAF
KOKC 030532Z 0306/0406 17012KT 2SM BR OVC003
      TEMPO 0306/0310 -DZ
     FM031400 20014G25KT P6SM SCT005 OVC015
     FM032000 24008KT P6SM SCT050 BKN100
     FM040100 02012KT 4SM BR OVC010=



000
FTUS44 KOUN 030532
TAFGAG
TAF
KGAG 030532Z 0306/0406 18016G26KT P6SM OVC006
     FM031600 21015G25KT P6SM SCT020 BKN150
     FM032200 03012G20KT P6SM SCT015 BKN100
     FM040300 05009KT 2SM BR OVC010=



000
FTUS44 KOUN 030532
TAFHBR
TAF
KHBR 030532Z 0306/0406 18014G21KT 3SM BR OVC005
     FM031600 22015G25KT P6SM SCT015 BKN100
     FM032300 04012KT 5SM BR BKN009 OVC100=



000
FTUS44 KOUN 030532
TAFHBR
TAF
KHBR 030532Z 0306/0406 18014G21KT 3SM BR OVC005
     FM031600 22015G25KT P6SM SCT015 BKN100
     FM032300 04012KT 5SM BR BKN009 OVC100=



000
FTUS44 KOUN 030532
TAFSPS
TAF
KSPS 030532Z 0306/0406 18009KT 2SM BR OVC004
     FM031600 20010KT 5SM BR SCT008 BKN100
     FM032100 22009KT P6SM BKN100
     FM040400 05008KT P6SM SCT005 OVC100=



000
FTUS44 KOUN 030532
TAFSPS
TAF
KSPS 030532Z 0306/0406 18009KT 2SM BR OVC004
     FM031600 20010KT 5SM BR SCT008 BKN100
     FM032100 22009KT P6SM BKN100
     FM040400 05008KT P6SM SCT005 OVC100=



000
FTUS44 KOUN 030532
TAFPNC
TAF
KPNC 030532Z 0306/0406 17010G18KT 2SM BR OVC004
      TEMPO 0306/0310 1SM -DZ
     FM031300 20010KT 4SM BR OVC010
     FM032100 26010KT P6SM SCT020 BKN100
     FM032300 36010KT 5SM BR OVC015=



000
FTUS44 KOUN 030532
TAFWWR
TAF
KWWR 030532Z 0306/0406 18016G26KT P6SM OVC006
     FM031600 21015G25KT P6SM SCT020 BKN150
     FM032200 03012G20KT P6SM SCT015 BKN100
     FM040300 05009KT 2SM BR OVC010=



000
FTUS44 KOUN 030532
TAFOKC
TAF
KOKC 030532Z 0306/0406 17012KT 2SM BR OVC003
      TEMPO 0306/0310 -DZ
     FM031400 20014G25KT P6SM SCT005 OVC015
     FM032000 24008KT P6SM SCT050 BKN100
     FM040100 02012KT 4SM BR OVC010=



000
FTUS44 KOUN 030532
TAFOUN
TAF
KOUN 030532Z 0306/0406 17012KT 2SM BR OVC003
      TEMPO 0306/0310 -DZ
     FM031400 20014G25KT P6SM SCT005 OVC015
     FM032000 24008KT P6SM SCT050 BKN100
     FM040100 02012KT 4SM BR OVC010=



000
FTUS44 KOUN 030532
TAFWWR
TAF
KWWR 030532Z 0306/0406 18016G26KT P6SM OVC006
     FM031600 21015G25KT P6SM SCT020 BKN150
     FM032200 03012G20KT P6SM SCT015 BKN100
     FM040300 05009KT 2SM BR OVC010=



000
FTUS44 KOUN 030532
TAFOUN
TAF
KOUN 030532Z 0306/0406 17012KT 2SM BR OVC003
      TEMPO 0306/0310 -DZ
     FM031400 20014G25KT P6SM SCT005 OVC015
     FM032000 24008KT P6SM SCT050 BKN100
     FM040100 02012KT 4SM BR OVC010=



000
FTUS44 KOUN 030220 AAA
TAFSPS
TAF AMD
KSPS 030220Z 0302/0324 16008KT 3SM BR OVC008
     FM030300 15011KT 1SM -DZ BR OVC003
     FM031700 22012KT P6SM SCT015 BKN060=



000
FTUS44 KOUN 030220 AAA
TAFSPS
TAF AMD
KSPS 030220Z 0302/0324 16008KT 3SM BR OVC008
     FM030300 15011KT 1SM -DZ BR OVC003
     FM031700 22012KT P6SM SCT015 BKN060=



000
FTUS44 KOUN 030220 AAA
TAFSPS
TAF AMD
KSPS 030220Z 0302/0324 16008KT 3SM BR OVC008
     FM030300 15011KT 1SM -DZ BR OVC003
     FM031700 22012KT P6SM SCT015 BKN060=



000
FTUS44 KOUN 030220 AAA
TAFSPS
TAF AMD
KSPS 030220Z 0302/0324 16008KT 3SM BR OVC008
     FM030300 15011KT 1SM -DZ BR OVC003
     FM031700 22012KT P6SM SCT015 BKN060=



000
FTUS44 KOUN 030219 AAA
TAFLAW
TAF AMD
KLAW 030219Z 0302/0324 15007KT 2SM BR OVC004
      TEMPO 0304/0308 1SM -DZ
     FM031600 20012KT P6SM SCT010 BKN100=



000
FTUS44 KOUN 030219 AAA
TAFLAW
TAF AMD
KLAW 030219Z 0302/0324 15007KT 2SM BR OVC004
      TEMPO 0304/0308 1SM -DZ
     FM031600 20012KT P6SM SCT010 BKN100=



000
FTUS44 KOUN 030219 AAA
TAFLAW
TAF AMD
KLAW 030219Z 0302/0324 15007KT 2SM BR OVC004
      TEMPO 0304/0308 1SM -DZ
     FM031600 20012KT P6SM SCT010 BKN100=



000
FTUS44 KOUN 030217 AAA
TAFPNC
TAF AMD
KPNC 030217Z 0302/0324 17010G18KT 1SM BR OVC004
      TEMPO 0304/0308 1/2SM FG OVC003
     FM031300 20010KT P6SM SCT010 OVC020
     FM032100 34012KT P6SM SCT020 BKN100=



000
FTUS44 KOUN 030217 AAA
TAFPNC
TAF AMD
KPNC 030217Z 0302/0324 17010G18KT 1SM BR OVC004
      TEMPO 0304/0308 1/2SM FG OVC003
     FM031300 20010KT P6SM SCT010 OVC020
     FM032100 34012KT P6SM SCT020 BKN100=



000
FTUS44 KOUN 030217 AAA
TAFPNC
TAF AMD
KPNC 030217Z 0302/0324 17010G18KT 1SM BR OVC004
      TEMPO 0304/0308 1/2SM FG OVC003
     FM031300 20010KT P6SM SCT010 OVC020
     FM032100 34012KT P6SM SCT020 BKN100=



000
FTUS44 KOUN 030215 AAB
TAFOUN
TAF AMD
KOUN 030215Z 0302/0324 14007KT 2SM BR OVC003
      TEMPO 0302/0306 1SM -DZ
     FM031400 20014G25KT P6SM SCT004 OVC015
     FM032000 24008KT P6SM OVC050=



000
FTUS44 KOUN 030215 AAB
TAFOUN
TAF AMD
KOUN 030215Z 0302/0324 14007KT 2SM BR OVC003
      TEMPO 0302/0306 1SM -DZ
     FM031400 20014G25KT P6SM SCT004 OVC015
     FM032000 24008KT P6SM OVC050=



000
FTUS44 KOUN 030215 AAB
TAFOUN
TAF AMD
KOUN 030215Z 0302/0324 14007KT 2SM BR OVC003
      TEMPO 0302/0306 1SM -DZ
     FM031400 20014G25KT P6SM SCT004 OVC015
     FM032000 24008KT P6SM OVC050=



000
FTUS44 KOUN 030214 AAA
TAFOKC
TAF AMD
KOKC 030214Z 0302/0324 17005KT 1SM BR OVC003
      TEMPO 0302/0306 -DZ
     FM031400 20014G25KT P6SM SCT005 OVC015
     FM032000 24008KT P6SM OVC050=



000
FTUS44 KOUN 030214 AAA
TAFOKC
TAF AMD
KOKC 030214Z 0302/0324 17005KT 1SM BR OVC003
      TEMPO 0302/0306 -DZ
     FM031400 20014G25KT P6SM SCT005 OVC015
     FM032000 24008KT P6SM OVC050=



000
FTUS44 KOUN 022340
TAFHBR
TAF
KHBR 022340Z 0300/0324 17010KT P6SM OVC025
     FM030500 18014G21KT 4SM BR OVC015
     FM031600 22015G25KT P6SM SCT015 BKN100=



000
FTUS44 KOUN 022340
TAFHBR
TAF
KHBR 022340Z 0300/0324 17010KT P6SM OVC025
     FM030500 18014G21KT 4SM BR OVC015
     FM031600 22015G25KT P6SM SCT015 BKN100=



000
FTUS44 KOUN 022340
TAFLAW
TAF
KLAW 022340Z 0300/0324 15007KT P6SM OVC025
     FM030500 17010KT 4SM -DZ BR OVC007
     FM031600 20012KT P6SM SCT010 BKN100=



000
FTUS44 KOUN 022340
TAFLAW
TAF
KLAW 022340Z 0300/0324 15007KT P6SM OVC025
     FM030500 17010KT 4SM -DZ BR OVC007
     FM031600 20012KT P6SM SCT010 BKN100=



000
FTUS44 KOUN 022340
TAFLAW
TAF
KLAW 022340Z 0300/0324 15007KT P6SM OVC025
     FM030500 17010KT 4SM -DZ BR OVC007
     FM031600 20012KT P6SM SCT010 BKN100=



000
FTUS44 KOUN 022340
TAFGAG
TAF
KGAG 022340Z 0300/0324 16010KT P6SM BKN150
     FM030600 18016G26KT P6SM BKN015
     FM031600 21015G25KT P6SM SCT020 BKN150
     FM032200 03012G20KT P6SM SCT015 BKN100=



000
FTUS44 KOUN 022340
TAFOUN
TAF
KOUN 022340Z 0300/0324 14007KT 6SM BR OVC015
     FM030800 18013KT 4SM -DZ BR OVC007
     FM031400 20014G25KT P6SM OVC015
     FM032000 24008KT P6SM OVC050=



000
FTUS44 KOUN 022340
TAFWWR
TAF
KWWR 022340Z 0300/0324 16010KT P6SM BKN150
     FM030600 18016G26KT P6SM BKN015
     FM031600 21015G25KT P6SM SCT020 BKN150
     FM032200 03012G20KT P6SM SCT015 BKN100=



000
FTUS44 KOUN 022340
TAFSPS
TAF
KSPS 022340Z 0300/0324 16008KT 5SM BR OVC015
     FM030900 17011KT 3SM -DZ BR OVC006
     FM031700 22012KT P6SM SCT015 BKN060=



000
FTUS44 KOUN 022340
TAFSPS
TAF
KSPS 022340Z 0300/0324 16008KT 5SM BR OVC015
     FM030900 17011KT 3SM -DZ BR OVC006
     FM031700 22012KT P6SM SCT015 BKN060=



000
FTUS44 KOUN 022340
TAFPNC
TAF
KPNC 022340Z 0300/0324 16008KT 5SM BR OVC012
     FM030400 17010G18KT 3SM BR BKN008 OVC015
     FM031300 20010KT P6SM OVC020
     FM032100 34012KT P6SM SCT020 BKN100=



000
FTUS44 KOUN 022340
TAFHBR
TAF
KHBR 022340Z 0300/0324 17010KT P6SM OVC025
     FM030500 18014G21KT 4SM BR OVC015
     FM031600 22015G25KT P6SM SCT015 BKN100=



000
FTUS44 KOUN 022340
TAFWWR
TAF
KWWR 022340Z 0300/0324 16010KT P6SM BKN150
     FM030600 18016G26KT P6SM BKN015
     FM031600 21015G25KT P6SM SCT020 BKN150
     FM032200 03012G20KT P6SM SCT015 BKN100=



000
FTUS44 KOUN 022340
TAFWWR
TAF
KWWR 022340Z 0300/0324 16010KT P6SM BKN150
     FM030600 18016G26KT P6SM BKN015
     FM031600 21015G25KT P6SM SCT020 BKN150
     FM032200 03012G20KT P6SM SCT015 BKN100=



000
FTUS44 KOUN 022340
TAFPNC
TAF
KPNC 022340Z 0300/0324 16008KT 5SM BR OVC012
     FM030400 17010G18KT 3SM BR BKN008 OVC015
     FM031300 20010KT P6SM OVC020
     FM032100 34012KT P6SM SCT020 BKN100=



000
FTUS44 KOUN 022340
TAFSPS
TAF
KSPS 022340Z 0300/0324 16008KT 5SM BR OVC015
     FM030900 17011KT 3SM -DZ BR OVC006
     FM031700 22012KT P6SM SCT015 BKN060=



000
FTUS44 KOUN 022340
TAFSPS
TAF
KSPS 022340Z 0300/0324 16008KT 5SM BR OVC015
     FM030900 17011KT 3SM -DZ BR OVC006
     FM031700 22012KT P6SM SCT015 BKN060=



000
FTUS44 KOUN 022340
TAFOKC
TAF
KOKC 022340Z 0300/0324 15007KT 6SM BR OVC015
     FM030800 18013KT 4SM -DZ BR OVC007
     FM031400 20014G25KT P6SM OVC015
     FM032000 24008KT P6SM OVC050=



000
FTUS44 KOUN 022340
TAFGAG
TAF
KGAG 022340Z 0300/0324 16010KT P6SM BKN150
     FM030600 18016G26KT P6SM BKN015
     FM031600 21015G25KT P6SM SCT020 BKN150
     FM032200 03012G20KT P6SM SCT015 BKN100=



000
FTUS44 KOUN 022340
TAFHBR
TAF
KHBR 022340Z 0300/0324 17010KT P6SM OVC025
     FM030500 18014G21KT 4SM BR OVC015
     FM031600 22015G25KT P6SM SCT015 BKN100=



000
FTUS44 KOUN 022340
TAFLAW
TAF
KLAW 022340Z 0300/0324 15007KT P6SM OVC025
     FM030500 17010KT 4SM -DZ BR OVC007
     FM031600 20012KT P6SM SCT010 BKN100=



000
FTUS44 KOUN 022340
TAFOKC
TAF
KOKC 022340Z 0300/0324 15007KT 6SM BR OVC015
     FM030800 18013KT 4SM -DZ BR OVC007
     FM031400 20014G25KT P6SM OVC015
     FM032000 24008KT P6SM OVC050=



000
FTUS44 KOUN 022340
TAFPNC
TAF
KPNC 022340Z 0300/0324 16008KT 5SM BR OVC012
     FM030400 17010G18KT 3SM BR BKN008 OVC015
     FM031300 20010KT P6SM OVC020
     FM032100 34012KT P6SM SCT020 BKN100=



000
FTUS44 KOUN 022340
TAFOUN
TAF
KOUN 022340Z 0300/0324 14007KT 6SM BR OVC015
     FM030800 18013KT 4SM -DZ BR OVC007
     FM031400 20014G25KT P6SM OVC015
     FM032000 24008KT P6SM OVC050=



000
FTUS44 KOUN 022340
TAFOUN
TAF
KOUN 022340Z 0300/0324 14007KT 6SM BR OVC015
     FM030800 18013KT 4SM -DZ BR OVC007
     FM031400 20014G25KT P6SM OVC015
     FM032000 24008KT P6SM OVC050=



000
FTUS44 KOUN 022340
TAFOKC
TAF
KOKC 022340Z 0300/0324 15007KT 6SM BR OVC015
     FM030800 18013KT 4SM -DZ BR OVC007
     FM031400 20014G25KT P6SM OVC015
     FM032000 24008KT P6SM OVC050=



000
FTUS44 KOUN 022340
TAFGAG
TAF
KGAG 022340Z 0300/0324 16010KT P6SM BKN150
     FM030600 18016G26KT P6SM BKN015
     FM031600 21015G25KT P6SM SCT020 BKN150
     FM032200 03012G20KT P6SM SCT015 BKN100=



000
FTUS44 KOUN 022340
TAFWWR
TAF
KWWR 022340Z 0300/0324 16010KT P6SM BKN150
     FM030600 18016G26KT P6SM BKN015
     FM031600 21015G25KT P6SM SCT020 BKN150
     FM032200 03012G20KT P6SM SCT015 BKN100=



000
FTUS44 KOUN 022340
TAFPNC
TAF
KPNC 022340Z 0300/0324 16008KT 5SM BR OVC012
     FM030400 17010G18KT 3SM BR BKN008 OVC015
     FM031300 20010KT P6SM OVC020
     FM032100 34012KT P6SM SCT020 BKN100=



000
FTUS44 KOUN 022340
TAFOKC
TAF
KOKC 022340Z 0300/0324 15007KT 6SM BR OVC015
     FM030800 18013KT 4SM -DZ BR OVC007
     FM031400 20014G25KT P6SM OVC015
     FM032000 24008KT P6SM OVC050=



000
FTUS44 KOUN 022340
TAFGAG
TAF
KGAG 022340Z 0300/0324 16010KT P6SM BKN150
     FM030600 18016G26KT P6SM BKN015
     FM031600 21015G25KT P6SM SCT020 BKN150
     FM032200 03012G20KT P6SM SCT015 BKN100=



000
FTUS44 KOUN 022340
TAFOUN
TAF
KOUN 022340Z 0300/0324 14007KT 6SM BR OVC015
     FM030800 18013KT 4SM -DZ BR OVC007
     FM031400 20014G25KT P6SM OVC015
     FM032000 24008KT P6SM OVC050=



000
FTUS44 KOUN 022135 AAA
TAFPNC
TAF AMD
KPNC 022135Z 0222/0318 16008KT P6SM BKN015
     FM030400 17010G18KT 5SM -DZ BR BKN015=



000
FTUS44 KOUN 022009 AAA
TAFLAW
TAF AMD
KLAW 022009Z 0220/0318 10004KT P6SM OVC025
     FM022200 15007KT P6SM OVC015
     FM030400 17010KT 4SM -DZ BR OVC007=



000
FTUS44 KOUN 022009 AAA
TAFLAW
TAF AMD
KLAW 022009Z 0220/0318 10004KT P6SM OVC025
     FM022200 15007KT P6SM OVC015
     FM030400 17010KT 4SM -DZ BR OVC007=



000
FTUS44 KOUN 022009 AAA
TAFSPS
TAF AMD
KSPS 022009Z 0220/0318 VRB05KT 4SM BR OVC015
     FM030000 16008KT 3SM BR BKN008
     FM030900 17011KT 1 1/2SM -DZ BR OVC004=



000
FTUS44 KOUN 022008 AAA
TAFHBR
TAF AMD
KHBR 022008Z 0220/0318 17010KT 6SM BR OVC025
     FM030500 18014G21KT 4SM -DZ BR OVC015=



000
FTUS44 KOUN 022008 AAA
TAFHBR
TAF AMD
KHBR 022008Z 0220/0318 17010KT 6SM BR OVC025
     FM030500 18014G21KT 4SM -DZ BR OVC015=



000
FTUS44 KOUN 022006 AAB
TAFOUN
TAF AMD
KOUN 022006Z 0220/0318 16007KT 6SM BR OVC012
     FM030800 18013KT 4SM -DZ BR OVC007
     FM031400 20014G25KT P6SM OVC015=



000
FTUS44 KOUN 022006 AAA
TAFOKC
TAF AMD
KOKC 022006Z 0220/0318 15007KT 6SM BR OVC015
     FM030800 18013KT 4SM -DZ BR OVC007
     FM031400 20014G25KT P6SM OVC015=



000
FTUS44 KOUN 022006 AAA
TAFOKC
TAF AMD
KOKC 022006Z 0220/0318 15007KT 6SM BR OVC015
     FM030800 18013KT 4SM -DZ BR OVC007
     FM031400 20014G25KT P6SM OVC015=



000
FTUS44 KOUN 022006 AAB
TAFOUN
TAF AMD
KOUN 022006Z 0220/0318 16007KT 6SM BR OVC012
     FM030800 18013KT 4SM -DZ BR OVC007
     FM031400 20014G25KT P6SM OVC015=



000
FTUS44 KOUN 022006 AAB
TAFOUN
TAF AMD
KOUN 022006Z 0220/0318 16007KT 6SM BR OVC012
     FM030800 18013KT 4SM -DZ BR OVC007
     FM031400 20014G25KT P6SM OVC015=



000
FTUS44 KOUN 021740
TAFOUN
TAF
KOUN 021740Z 0218/0318 11005KT P6SM BKN025 OVC040
      TEMPO 0219/0223 OVC040
     FM022300 15007KT P6SM BKN015
     FM030900 18012KT 4SM -DZ BR OVC007
     FM031400 20014G25KT P6SM OVC015=



000
FTUS44 KOUN 021740
TAFOUN
TAF
KOUN 021740Z 0218/0318 11005KT P6SM BKN025 OVC040
      TEMPO 0219/0223 OVC040
     FM022300 15007KT P6SM BKN015
     FM030900 18012KT 4SM -DZ BR OVC007
     FM031400 20014G25KT P6SM OVC015=



000
FTUS44 KOUN 021740
TAFLAW
TAF
KLAW 021740Z 0218/0318 10004KT P6SM BKN030
     FM030000 15007KT P6SM BKN015
     FM030400 17010KT 4SM -DZ BR OVC007=



000
FTUS44 KOUN 021740
TAFOKC
TAF
KOKC 021740Z 0218/0318 12005KT P6SM BKN030 OVC040
      TEMPO 0219/0223 OVC040
     FM022300 15008KT P6SM BKN015
     FM030900 18013KT 4SM -DZ BR OVC007
     FM031400 20014G25KT P6SM OVC015=



000
FTUS44 KOUN 021740
TAFSPS
TAF
KSPS 021740Z 0218/0318 VRB05KT 5SM BR OVC020
     FM022100 15005KT P6SM BKN015
     FM030400 16008KT P6SM BKN008
     FM030900 17011KT 1 1/2SM -DZ BR OVC004=



000
FTUS44 KOUN 021740
TAFOKC
TAF
KOKC 021740Z 0218/0318 12005KT P6SM BKN030 OVC040
      TEMPO 0219/0223 OVC040
     FM022300 15008KT P6SM BKN015
     FM030900 18013KT 4SM -DZ BR OVC007
     FM031400 20014G25KT P6SM OVC015=



000
FTUS44 KOUN 021740
TAFSPS
TAF
KSPS 021740Z 0218/0318 VRB05KT 5SM BR OVC020
     FM022100 15005KT P6SM BKN015
     FM030400 16008KT P6SM BKN008
     FM030900 17011KT 1 1/2SM -DZ BR OVC004=



000
FTUS44 KOUN 021740
TAFWWR
TAF
KWWR 021740Z 0218/0318 14010KT P6SM BKN150
     FM030100 18014KT P6SM SCT020 BKN150
     FM030600 18016G26KT P6SM BKN015=



000
FTUS44 KOUN 021740
TAFWWR
TAF
KWWR 021740Z 0218/0318 14010KT P6SM BKN150
     FM030100 18014KT P6SM SCT020 BKN150
     FM030600 18016G26KT P6SM BKN015=



000
FTUS44 KOUN 021740
TAFLAW
TAF
KLAW 021740Z 0218/0318 10004KT P6SM BKN030
     FM030000 15007KT P6SM BKN015
     FM030400 17010KT 4SM -DZ BR OVC007=



000
FTUS44 KOUN 021740
TAFOKC
TAF
KOKC 021740Z 0218/0318 12005KT P6SM BKN030 OVC040
      TEMPO 0219/0223 OVC040
     FM022300 15008KT P6SM BKN015
     FM030900 18013KT 4SM -DZ BR OVC007
     FM031400 20014G25KT P6SM OVC015=



000
FTUS44 KOUN 021740
TAFPNC
TAF
KPNC 021740Z 0218/0318 13010KT P6SM SCT025 BKN150
     FM021900 14010KT P6SM BKN025
     FM030400 17010G18KT 5SM -DZ BR BKN015=



000
FTUS44 KOUN 021740
TAFOUN
TAF
KOUN 021740Z 0218/0318 11005KT P6SM BKN025 OVC040
      TEMPO 0219/0223 OVC040
     FM022300 15007KT P6SM BKN015
     FM030900 18012KT 4SM -DZ BR OVC007
     FM031400 20014G25KT P6SM OVC015=



000
FTUS44 KOUN 021740
TAFPNC
TAF
KPNC 021740Z 0218/0318 13010KT P6SM SCT025 BKN150
     FM021900 14010KT P6SM BKN025
     FM030400 17010G18KT 5SM -DZ BR BKN015=



000
FTUS44 KOUN 021740
TAFGAG
TAF
KGAG 021740Z 0218/0318 16010KT P6SM BKN150
     FM030100 18014KT P6SM SCT020 BKN150
     FM030600 18016G26KT P6SM BKN015=



000
FTUS44 KOUN 021740
TAFHBR
TAF
KHBR 021740Z 0218/0318 10010KT P6SM SCT040 BKN150
     FM022000 15010KT P6SM BKN050
     FM030500 18014G21KT 4SM -DZ BR OVC015=



000
FTUS44 KOUN 021740
TAFHBR
TAF
KHBR 021740Z 0218/0318 10010KT P6SM SCT040 BKN150
     FM022000 15010KT P6SM BKN050
     FM030500 18014G21KT 4SM -DZ BR OVC015=



000
FTUS44 KOUN 021740
TAFLAW
TAF
KLAW 021740Z 0218/0318 10004KT P6SM BKN030
     FM030000 15007KT P6SM BKN015
     FM030400 17010KT 4SM -DZ BR OVC007=



000
FTUS44 KOUN 021740
TAFOUN
TAF
KOUN 021740Z 0218/0318 11005KT P6SM BKN025 OVC040
      TEMPO 0219/0223 OVC040
     FM022300 15007KT P6SM BKN015
     FM030900 18012KT 4SM -DZ BR OVC007
     FM031400 20014G25KT P6SM OVC015=



000
FTUS44 KOUN 021740
TAFWWR
TAF
KWWR 021740Z 0218/0318 14010KT P6SM BKN150
     FM030100 18014KT P6SM SCT020 BKN150
     FM030600 18016G26KT P6SM BKN015=



000
FTUS44 KOUN 021740
TAFGAG
TAF
KGAG 021740Z 0218/0318 16010KT P6SM BKN150
     FM030100 18014KT P6SM SCT020 BKN150
     FM030600 18016G26KT P6SM BKN015=



000
FTUS44 KOUN 021740
TAFPNC
TAF
KPNC 021740Z 0218/0318 13010KT P6SM SCT025 BKN150
     FM021900 14010KT P6SM BKN025
     FM030400 17010G18KT 5SM -DZ BR BKN015=



000
FTUS44 KOUN 021740
TAFOKC
TAF
KOKC 021740Z 0218/0318 12005KT P6SM BKN030 OVC040
      TEMPO 0219/0223 OVC040
     FM022300 15008KT P6SM BKN015
     FM030900 18013KT 4SM -DZ BR OVC007
     FM031400 20014G25KT P6SM OVC015=



000
FTUS44 KOUN 021740
TAFHBR
TAF
KHBR 021740Z 0218/0318 10010KT P6SM SCT040 BKN150
     FM022000 15010KT P6SM BKN050
     FM030500 18014G21KT 4SM -DZ BR OVC015=



000
FTUS44 KOUN 021740
TAFHBR
TAF
KHBR 021740Z 0218/0318 10010KT P6SM SCT040 BKN150
     FM022000 15010KT P6SM BKN050
     FM030500 18014G21KT 4SM -DZ BR OVC015=



000
FTUS44 KOUN 021740
TAFGAG
TAF
KGAG 021740Z 0218/0318 16010KT P6SM BKN150
     FM030100 18014KT P6SM SCT020 BKN150
     FM030600 18016G26KT P6SM BKN015=



000
FTUS44 KOUN 021740
TAFLAW
TAF
KLAW 021740Z 0218/0318 10004KT P6SM BKN030
     FM030000 15007KT P6SM BKN015
     FM030400 17010KT 4SM -DZ BR OVC007=



000
FTUS44 KOUN 021740
TAFPNC
TAF
KPNC 021740Z 0218/0318 13010KT P6SM SCT025 BKN150
     FM021900 14010KT P6SM BKN025
     FM030400 17010G18KT 5SM -DZ BR BKN015=



000
FTUS44 KOUN 021740
TAFWWR
TAF
KWWR 021740Z 0218/0318 14010KT P6SM BKN150
     FM030100 18014KT P6SM SCT020 BKN150
     FM030600 18016G26KT P6SM BKN015=



000
FTUS44 KOUN 021740
TAFGAG
TAF
KGAG 021740Z 0218/0318 16010KT P6SM BKN150
     FM030100 18014KT P6SM SCT020 BKN150
     FM030600 18016G26KT P6SM BKN015=



000
FTUS44 KOUN 021740
TAFSPS
TAF
KSPS 021740Z 0218/0318 VRB05KT 5SM BR OVC020
     FM022100 15005KT P6SM BKN015
     FM030400 16008KT P6SM BKN008
     FM030900 17011KT 1 1/2SM -DZ BR OVC004=



000
FTUS44 KOUN 021122
TAFPNC
TAF
KPNC 021122Z 0212/0312 04005KT 5SM BR BKN250
     FM021600 13005KT P6SM SCT025 BKN200
     FM021900 14006KT P6SM BKN025
     FM030300 15010KT P6SM BKN015=



000
FTUS44 KOUN 021122
TAFPNC
TAF
KPNC 021122Z 0212/0312 04005KT 5SM BR BKN250
     FM021600 13005KT P6SM SCT025 BKN200
     FM021900 14006KT P6SM BKN025
     FM030300 15010KT P6SM BKN015=



000
FTUS44 KOUN 021122
TAFHBR
TAF
KHBR 021122Z 0212/0312 05008KT 6SM BR FEW029 BKN200
     FM021600 16008KT P6SM SCT025 BKN200
     FM022300 18011KT P6SM BKN025
     FM030200 18014G20KT P6SM BKN015=



000
FTUS44 KOUN 021122
TAFLAW
TAF
KLAW 021122Z 0212/0312 01008KT 6SM BR BKN030
     FM021400 02007KT P6SM SCT029 BKN250
     FM021600 07004KT P6SM BKN029
     FM030100 15007KT P6SM BKN015
     FM030900 17007KT 4SM BR OVC007=



000
FTUS44 KOUN 021122
TAFSPS
TAF
KSPS 021122Z 0212/0312 02007KT 5SM BR OVC022
     FM022100 15005KT P6SM BKN015
     FM030400 16008KT P6SM BKN008
     FM030900 17011KT 1 1/2SM BR OVC004=



000
FTUS44 KOUN 021122
TAFOKC
TAF
KOKC 021122Z 0212/0312 01006KT P6SM SCT022 BKN250
     FM021700 16005KT P6SM BKN022
     FM022300 15007KT P6SM BKN015
     FM030900 18016KT 4SM BR OVC007=



000
FTUS44 KOUN 021122
TAFWWR
TAF
KWWR 021122Z 0212/0312 03003KT P6SM FEW025 BKN200
     FM021600 16011KT P6SM SCT025 BKN150
     FM030100 18016G23KT P6SM SCT025 BKN150=



000
FTUS44 KOUN 021122
TAFOUN
TAF
KOUN 021122Z 0212/0312 01005KT P6SM SCT022 BKN250
     FM021700 16005KT P6SM BKN022
     FM022300 15007KT P6SM BKN015
     FM030900 18015KT 4SM BR OVC007=



000
FTUS44 KOUN 021122
TAFWWR
TAF
KWWR 021122Z 0212/0312 03003KT P6SM FEW025 BKN200
     FM021600 16011KT P6SM SCT025 BKN150
     FM030100 18016G23KT P6SM SCT025 BKN150=



000
FTUS44 KOUN 021122
TAFOUN
TAF
KOUN 021122Z 0212/0312 01005KT P6SM SCT022 BKN250
     FM021700 16005KT P6SM BKN022
     FM022300 15007KT P6SM BKN015
     FM030900 18015KT 4SM BR OVC007=



000
FTUS44 KOUN 021122
TAFOKC
TAF
KOKC 021122Z 0212/0312 01006KT P6SM SCT022 BKN250
     FM021700 16005KT P6SM BKN022
     FM022300 15007KT P6SM BKN015
     FM030900 18016KT 4SM BR OVC007=



000
FTUS44 KOUN 021122
TAFGAG
TAF
KGAG 021122Z 0212/0312 04004KT 5SM BR SCT015 BKN200
      TEMPO 0212/0214 BKN015 BKN200
     FM021500 16011KT P6SM SCT025 BKN150
     FM030100 18016G23KT P6SM SCT025 BKN150=



000
FTUS44 KOUN 021122
TAFHBR
TAF
KHBR 021122Z 0212/0312 05008KT 6SM BR FEW029 BKN200
     FM021600 16008KT P6SM SCT025 BKN200
     FM022300 18011KT P6SM BKN025
     FM030200 18014G20KT P6SM BKN015=



000
FTUS44 KOUN 021122
TAFSPS
TAF
KSPS 021122Z 0212/0312 02007KT 5SM BR OVC022
     FM022100 15005KT P6SM BKN015
     FM030400 16008KT P6SM BKN008
     FM030900 17011KT 1 1/2SM BR OVC004=



000
FTUS44 KOUN 021122
TAFLAW
TAF
KLAW 021122Z 0212/0312 01008KT 6SM BR BKN030
     FM021400 02007KT P6SM SCT029 BKN250
     FM021600 07004KT P6SM BKN029
     FM030100 15007KT P6SM BKN015
     FM030900 17007KT 4SM BR OVC007=



000
FTUS44 KOUN 021122
TAFPNC
TAF
KPNC 021122Z 0212/0312 04005KT 5SM BR BKN250
     FM021600 13005KT P6SM SCT025 BKN200
     FM021900 14006KT P6SM BKN025
     FM030300 15010KT P6SM BKN015=



000
FTUS44 KOUN 021122
TAFWWR
TAF
KWWR 021122Z 0212/0312 03003KT P6SM FEW025 BKN200
     FM021600 16011KT P6SM SCT025 BKN150
     FM030100 18016G23KT P6SM SCT025 BKN150=



000
FTUS44 KOUN 021122
TAFSPS
TAF
KSPS 021122Z 0212/0312 02007KT 5SM BR OVC022
     FM022100 15005KT P6SM BKN015
     FM030400 16008KT P6SM BKN008
     FM030900 17011KT 1 1/2SM BR OVC004=



000
FTUS44 KOUN 021122
TAFLAW
TAF
KLAW 021122Z 0212/0312 01008KT 6SM BR BKN030
     FM021400 02007KT P6SM SCT029 BKN250
     FM021600 07004KT P6SM BKN029
     FM030100 15007KT P6SM BKN015
     FM030900 17007KT 4SM BR OVC007=



000
FTUS44 KOUN 021122
TAFPNC
TAF
KPNC 021122Z 0212/0312 04005KT 5SM BR BKN250
     FM021600 13005KT P6SM SCT025 BKN200
     FM021900 14006KT P6SM BKN025
     FM030300 15010KT P6SM BKN015=



000
FTUS44 KOUN 021122
TAFOUN
TAF
KOUN 021122Z 0212/0312 01005KT P6SM SCT022 BKN250
     FM021700 16005KT P6SM BKN022
     FM022300 15007KT P6SM BKN015
     FM030900 18015KT 4SM BR OVC007=



000
FTUS44 KOUN 021122
TAFWWR
TAF
KWWR 021122Z 0212/0312 03003KT P6SM FEW025 BKN200
     FM021600 16011KT P6SM SCT025 BKN150
     FM030100 18016G23KT P6SM SCT025 BKN150=



000
FTUS44 KOUN 021122
TAFGAG
TAF
KGAG 021122Z 0212/0312 04004KT 5SM BR SCT015 BKN200
      TEMPO 0212/0214 BKN015 BKN200
     FM021500 16011KT P6SM SCT025 BKN150
     FM030100 18016G23KT P6SM SCT025 BKN150=



000
FTUS44 KOUN 021122
TAFHBR
TAF
KHBR 021122Z 0212/0312 05008KT 6SM BR FEW029 BKN200
     FM021600 16008KT P6SM SCT025 BKN200
     FM022300 18011KT P6SM BKN025
     FM030200 18014G20KT P6SM BKN015=



000
FTUS44 KOUN 021122
TAFOKC
TAF
KOKC 021122Z 0212/0312 01006KT P6SM SCT022 BKN250
     FM021700 16005KT P6SM BKN022
     FM022300 15007KT P6SM BKN015
     FM030900 18016KT 4SM BR OVC007=



000
FTUS44 KOUN 021122
TAFOKC
TAF
KOKC 021122Z 0212/0312 01006KT P6SM SCT022 BKN250
     FM021700 16005KT P6SM BKN022
     FM022300 15007KT P6SM BKN015
     FM030900 18016KT 4SM BR OVC007=



000
FTUS44 KOUN 021122
TAFGAG
TAF
KGAG 021122Z 0212/0312 04004KT 5SM BR SCT015 BKN200
      TEMPO 0212/0214 BKN015 BKN200
     FM021500 16011KT P6SM SCT025 BKN150
     FM030100 18016G23KT P6SM SCT025 BKN150=



000
FTUS44 KOUN 021122
TAFSPS
TAF
KSPS 021122Z 0212/0312 02007KT 5SM BR OVC022
     FM022100 15005KT P6SM BKN015
     FM030400 16008KT P6SM BKN008
     FM030900 17011KT 1 1/2SM BR OVC004=



000
FTUS44 KOUN 021122
TAFOUN
TAF
KOUN 021122Z 0212/0312 01005KT P6SM SCT022 BKN250
     FM021700 16005KT P6SM BKN022
     FM022300 15007KT P6SM BKN015
     FM030900 18015KT 4SM BR OVC007=



000
FTUS44 KOUN 021122
TAFGAG
TAF
KGAG 021122Z 0212/0312 04004KT 5SM BR SCT015 BKN200
      TEMPO 0212/0214 BKN015 BKN200
     FM021500 16011KT P6SM SCT025 BKN150
     FM030100 18016G23KT P6SM SCT025 BKN150=



000
FTUS44 KOUN 021122
TAFHBR
TAF
KHBR 021122Z 0212/0312 05008KT 6SM BR FEW029 BKN200
     FM021600 16008KT P6SM SCT025 BKN200
     FM022300 18011KT P6SM BKN025
     FM030200 18014G20KT P6SM BKN015=



000
FTUS44 KOUN 021122
TAFLAW
TAF
KLAW 021122Z 0212/0312 01008KT 6SM BR BKN030
     FM021400 02007KT P6SM SCT029 BKN250
     FM021600 07004KT P6SM BKN029
     FM030100 15007KT P6SM BKN015
     FM030900 17007KT 4SM BR OVC007=



000
FTUS44 KOUN 020520
TAFOKC
TAF
KOKC 020520Z 0206/0306 01006KT P6SM SCT022 BKN250
     FM021700 16005KT P6SM BKN022
     FM022300 15007KT P6SM BKN015=



000
FTUS44 KOUN 020520
TAFWWR
TAF
KWWR 020520Z 0206/0306 03003KT P6SM FEW025 BKN200
     FM021600 16011KT P6SM SCT025 BKN150
     FM030100 18016G23KT P6SM SCT025 BKN150=



000
FTUS44 KOUN 020520
TAFOUN
TAF
KOUN 020520Z 0206/0306 01005KT P6SM SCT022 BKN250
     FM021700 16005KT P6SM BKN022
     FM022300 15007KT P6SM BKN015=



000
FTUS44 KOUN 020520
TAFOUN
TAF
KOUN 020520Z 0206/0306 01005KT P6SM SCT022 BKN250
     FM021700 16005KT P6SM BKN022
     FM022300 15007KT P6SM BKN015=



000
FTUS44 KOUN 020520
TAFWWR
TAF
KWWR 020520Z 0206/0306 03003KT P6SM FEW025 BKN200
     FM021600 16011KT P6SM SCT025 BKN150
     FM030100 18016G23KT P6SM SCT025 BKN150=



000
FTUS44 KOUN 020520
TAFOKC
TAF
KOKC 020520Z 0206/0306 01006KT P6SM SCT022 BKN250
     FM021700 16005KT P6SM BKN022
     FM022300 15007KT P6SM BKN015=



000
FTUS44 KOUN 020520
TAFOUN
TAF
KOUN 020520Z 0206/0306 01005KT P6SM SCT022 BKN250
     FM021700 16005KT P6SM BKN022
     FM022300 15007KT P6SM BKN015=



000
FTUS44 KOUN 020520
TAFOKC
TAF
KOKC 020520Z 0206/0306 01006KT P6SM SCT022 BKN250
     FM021700 16005KT P6SM BKN022
     FM022300 15007KT P6SM BKN015=



000
FTUS44 KOUN 020520
TAFGAG
TAF
KGAG 020520Z 0206/0306 03007KT P6SM BKN025
     FM020800 04004KT P6SM FEW025 BKN200
     FM021600 16011KT P6SM SCT025 BKN150
     FM030100 18016G23KT P6SM SCT025 BKN150=



000
FTUS44 KOUN 020520
TAFWWR
TAF
KWWR 020520Z 0206/0306 03003KT P6SM FEW025 BKN200
     FM021600 16011KT P6SM SCT025 BKN150
     FM030100 18016G23KT P6SM SCT025 BKN150=



000
FTUS44 KOUN 020520
TAFSPS
TAF
KSPS 020520Z 0206/0306 02007KT 5SM BR OVC022
     FM022100 15005KT P6SM BKN015
     FM030400 16008KT P6SM BKN008=



000
FTUS44 KOUN 020520
TAFPNC
TAF
KPNC 020520Z 0206/0306 04005KT 5SM BR BKN250
     FM021600 13005KT P6SM SCT025 BKN200
     FM021900 14006KT P6SM BKN025
     FM030300 15010KT P6SM BKN015=



000
FTUS44 KOUN 020520
TAFLAW
TAF
KLAW 020520Z 0206/0306 02007KT P6SM SCT029 BKN250
     FM021600 07004KT P6SM BKN029
     FM030100 15007KT P6SM BKN015=



000
FTUS44 KOUN 020520
TAFHBR
TAF
KHBR 020520Z 0206/0306 05008KT 6SM BR FEW029 BKN200
     FM021600 16008KT P6SM SCT025 BKN200
     FM022300 18011KT P6SM BKN025
     FM030200 18014G20KT P6SM BKN015=



000
FTUS44 KOUN 020520
TAFHBR
TAF
KHBR 020520Z 0206/0306 05008KT 6SM BR FEW029 BKN200
     FM021600 16008KT P6SM SCT025 BKN200
     FM022300 18011KT P6SM BKN025
     FM030200 18014G20KT P6SM BKN015=



000
FTUS44 KOUN 020520
TAFLAW
TAF
KLAW 020520Z 0206/0306 02007KT P6SM SCT029 BKN250
     FM021600 07004KT P6SM BKN029
     FM030100 15007KT P6SM BKN015=



000
FTUS44 KOUN 020520
TAFGAG
TAF
KGAG 020520Z 0206/0306 03007KT P6SM BKN025
     FM020800 04004KT P6SM FEW025 BKN200
     FM021600 16011KT P6SM SCT025 BKN150
     FM030100 18016G23KT P6SM SCT025 BKN150=



000
FTUS44 KOUN 020520
TAFSPS
TAF
KSPS 020520Z 0206/0306 02007KT 5SM BR OVC022
     FM022100 15005KT P6SM BKN015
     FM030400 16008KT P6SM BKN008=



000
FTUS44 KOUN 020520
TAFPNC
TAF
KPNC 020520Z 0206/0306 04005KT 5SM BR BKN250
     FM021600 13005KT P6SM SCT025 BKN200
     FM021900 14006KT P6SM BKN025
     FM030300 15010KT P6SM BKN015=



000
FTUS44 KOUN 020520
TAFGAG
TAF
KGAG 020520Z 0206/0306 03007KT P6SM BKN025
     FM020800 04004KT P6SM FEW025 BKN200
     FM021600 16011KT P6SM SCT025 BKN150
     FM030100 18016G23KT P6SM SCT025 BKN150=



000
FTUS44 KOUN 020520
TAFPNC
TAF
KPNC 020520Z 0206/0306 04005KT 5SM BR BKN250
     FM021600 13005KT P6SM SCT025 BKN200
     FM021900 14006KT P6SM BKN025
     FM030300 15010KT P6SM BKN015=



000
FTUS44 KOUN 020520
TAFHBR
TAF
KHBR 020520Z 0206/0306 05008KT 6SM BR FEW029 BKN200
     FM021600 16008KT P6SM SCT025 BKN200
     FM022300 18011KT P6SM BKN025
     FM030200 18014G20KT P6SM BKN015=



000
FTUS44 KOUN 020520
TAFSPS
TAF
KSPS 020520Z 0206/0306 02007KT 5SM BR OVC022
     FM022100 15005KT P6SM BKN015
     FM030400 16008KT P6SM BKN008=



000
FTUS44 KOUN 020520
TAFPNC
TAF
KPNC 020520Z 0206/0306 04005KT 5SM BR BKN250
     FM021600 13005KT P6SM SCT025 BKN200
     FM021900 14006KT P6SM BKN025
     FM030300 15010KT P6SM BKN015=



000
FTUS44 KOUN 020520
TAFHBR
TAF
KHBR 020520Z 0206/0306 05008KT 6SM BR FEW029 BKN200
     FM021600 16008KT P6SM SCT025 BKN200
     FM022300 18011KT P6SM BKN025
     FM030200 18014G20KT P6SM BKN015=



000
FTUS44 KOUN 020520
TAFWWR
TAF
KWWR 020520Z 0206/0306 03003KT P6SM FEW025 BKN200
     FM021600 16011KT P6SM SCT025 BKN150
     FM030100 18016G23KT P6SM SCT025 BKN150=



000
FTUS44 KOUN 020520
TAFGAG
TAF
KGAG 020520Z 0206/0306 03007KT P6SM BKN025
     FM020800 04004KT P6SM FEW025 BKN200
     FM021600 16011KT P6SM SCT025 BKN150
     FM030100 18016G23KT P6SM SCT025 BKN150=



000
FTUS44 KOUN 020520
TAFLAW
TAF
KLAW 020520Z 0206/0306 02007KT P6SM SCT029 BKN250
     FM021600 07004KT P6SM BKN029
     FM030100 15007KT P6SM BKN015=



000
FTUS44 KOUN 020520
TAFLAW
TAF
KLAW 020520Z 0206/0306 02007KT P6SM SCT029 BKN250
     FM021600 07004KT P6SM BKN029
     FM030100 15007KT P6SM BKN015=



000
FTUS44 KOUN 020520
TAFSPS
TAF
KSPS 020520Z 0206/0306 02007KT 5SM BR OVC022
     FM022100 15005KT P6SM BKN015
     FM030400 16008KT P6SM BKN008=



    US Dept of Commerce
    National Oceanic and Atmospheric Administration
    National Weather Service
    1325 East West Highway
    Silver Spring, MD 20910
    Page Author: NWS Internet Services Team
Disclaimer
Information Quality
Credits
Glossary
Privacy Policy
Freedom of Information Act (FOIA)
About Us
Career Opportunities